<?xml version="1.0" encoding="utf-8"?>
<gpx xmlns:xsi="http://www.w3.org/2001/XMLSchema-instance" xmlns:xsd="http://www.w3.org/2001/XMLSchema" version="1.1" creator="Shapelink.com" xmlns="http://www.topografix.com/GPX/1/1" xmlns:gpxtpx="http://www.garmin.com/xmlschemas/TrackPointExtension/v1">
  <metadata>
    <name>Löpning 12.87 km, 2016-04-13</name>
    <desc></desc>
    <author><name>Stefan Östlund</name></author> 
    <time>2016-04-13T09:09:28Z</time>
  </metadata>
  <trk>
    <name>Löpning 12.87 km, 2016-04-13</name>
    <trkseg>
      <trkpt lat="28.230194440654" lon="-13.989026654988">
        <ele>19.6</ele>
        <time>2016-04-13T09:10:07Z</time>
      </trkpt>
      <trkpt lat="28.230215227766" lon="-13.989035120707">
        <ele>20</ele>
        <time>2016-04-13T09:10:08Z</time>
      </trkpt>
      <trkpt lat="28.230377752807" lon="-13.989095051292">
        <ele>21</ele>
        <time>2016-04-13T09:10:15Z</time>
      </trkpt>
      <trkpt lat="28.230495434683" lon="-13.989142744303">
        <ele>22</ele>
        <time>2016-04-13T09:10:20Z</time>
      </trkpt>
      <trkpt lat="28.230636250603" lon="-13.989203513078">
        <ele>23.2</ele>
        <time>2016-04-13T09:10:27Z</time>
      </trkpt>
      <trkpt lat="28.230761560008" lon="-13.989226563303">
        <ele>24.2</ele>
        <time>2016-04-13T09:10:33Z</time>
      </trkpt>
      <trkpt lat="28.230920480832" lon="-13.989190688771">
        <ele>25.6</ele>
        <time>2016-04-13T09:10:41Z</time>
      </trkpt>
      <trkpt lat="28.230955098079" lon="-13.989178535016">
        <ele>25.8</ele>
        <time>2016-04-13T09:10:43Z</time>
      </trkpt>
      <trkpt lat="28.231106475193" lon="-13.989190269676">
        <ele>26.6</ele>
        <time>2016-04-13T09:10:50Z</time>
      </trkpt>
      <trkpt lat="28.231303282205" lon="-13.989190688771">
        <ele>26.8</ele>
        <time>2016-04-13T09:10:58Z</time>
      </trkpt>
      <trkpt lat="28.231485504711" lon="-13.989196723739">
        <ele>27.8</ele>
        <time>2016-04-13T09:11:06Z</time>
      </trkpt>
      <trkpt lat="28.231614083057" lon="-13.989219354869">
        <ele>29</ele>
        <time>2016-04-13T09:11:12Z</time>
      </trkpt>
      <trkpt lat="28.23174878019" lon="-13.989199405947">
        <ele>29.4</ele>
        <time>2016-04-13T09:11:18Z</time>
      </trkpt>
      <trkpt lat="28.231771830415" lon="-13.989151042384">
        <ele>30</ele>
        <time>2016-04-13T09:11:20Z</time>
      </trkpt>
      <trkpt lat="28.231834527027" lon="-13.988918779935">
        <ele>31</ele>
        <time>2016-04-13T09:11:27Z</time>
      </trkpt>
      <trkpt lat="28.231865540057" lon="-13.988826662854">
        <ele>31</ele>
        <time>2016-04-13T09:11:30Z</time>
      </trkpt>
      <trkpt lat="28.23189965439" lon="-13.988625748711">
        <ele>31.4</ele>
        <time>2016-04-13T09:11:37Z</time>
      </trkpt>
      <trkpt lat="28.23194407846" lon="-13.988404885646">
        <ele>31.6</ele>
        <time>2016-04-13T09:11:45Z</time>
      </trkpt>
      <trkpt lat="28.231974169481" lon="-13.988186537151">
        <ele>31.8</ele>
        <time>2016-04-13T09:11:53Z</time>
      </trkpt>
      <trkpt lat="28.232009792556" lon="-13.987959052385">
        <ele>32.2</ele>
        <time>2016-04-13T09:12:01Z</time>
      </trkpt>
      <trkpt lat="28.232051199142" lon="-13.987742296451">
        <ele>32.2</ele>
        <time>2016-04-13T09:12:09Z</time>
      </trkpt>
      <trkpt lat="28.232098137782" lon="-13.98752109811">
        <ele>32.4</ele>
        <time>2016-04-13T09:12:17Z</time>
      </trkpt>
      <trkpt lat="28.232121271826" lon="-13.987315657741">
        <ele>32.8</ele>
        <time>2016-04-13T09:12:24Z</time>
      </trkpt>
      <trkpt lat="28.232126384785" lon="-13.987097644522">
        <ele>32.4</ele>
        <time>2016-04-13T09:12:32Z</time>
      </trkpt>
      <trkpt lat="28.232197128021" lon="-13.986890946868">
        <ele>32.8</ele>
        <time>2016-04-13T09:12:41Z</time>
      </trkpt>
      <trkpt lat="28.232356300302" lon="-13.986755327726">
        <ele>32.6</ele>
        <time>2016-04-13T09:12:49Z</time>
      </trkpt>
      <trkpt lat="28.232547910536" lon="-13.986737558098">
        <ele>31.6</ele>
        <time>2016-04-13T09:12:57Z</time>
      </trkpt>
      <trkpt lat="28.232746058652" lon="-13.986716854805">
        <ele>31.2</ele>
        <time>2016-04-13T09:13:06Z</time>
      </trkpt>
      <trkpt lat="28.232936830696" lon="-13.986705371602">
        <ele>31.6</ele>
        <time>2016-04-13T09:13:14Z</time>
      </trkpt>
      <trkpt lat="28.233138918305" lon="-13.986696151512">
        <ele>32.2</ele>
        <time>2016-04-13T09:13:23Z</time>
      </trkpt>
      <trkpt lat="28.2333237392" lon="-13.986689445992">
        <ele>33</ele>
        <time>2016-04-13T09:13:31Z</time>
      </trkpt>
      <trkpt lat="28.233399846852" lon="-13.986686763784">
        <ele>33.2</ele>
        <time>2016-04-13T09:13:34Z</time>
      </trkpt>
      <trkpt lat="28.233584835385" lon="-13.986659774066">
        <ele>33.4</ele>
        <time>2016-04-13T09:13:42Z</time>
      </trkpt>
      <trkpt lat="28.233734284662" lon="-13.986635718013">
        <ele>34.2</ele>
        <time>2016-04-13T09:13:49Z</time>
      </trkpt>
      <trkpt lat="28.233926649267" lon="-13.986593976151">
        <ele>34.6</ele>
        <time>2016-04-13T09:13:57Z</time>
      </trkpt>
      <trkpt lat="28.233998230693" lon="-13.98659322178">
        <ele>35.2</ele>
        <time>2016-04-13T09:14:00Z</time>
      </trkpt>
      <trkpt lat="28.234178860638" lon="-13.986582241491">
        <ele>35.8</ele>
        <time>2016-04-13T09:14:07Z</time>
      </trkpt>
      <trkpt lat="28.234333422874" lon="-13.986576960894">
        <ele>36.4</ele>
        <time>2016-04-13T09:14:13Z</time>
      </trkpt>
      <trkpt lat="28.234408524698" lon="-13.986565142415">
        <ele>36.4</ele>
        <time>2016-04-13T09:14:16Z</time>
      </trkpt>
      <trkpt lat="28.234599212923" lon="-13.986558688352">
        <ele>37.2</ele>
        <time>2016-04-13T09:14:25Z</time>
      </trkpt>
      <trkpt lat="28.234637015292" lon="-13.986548294796">
        <ele>37.6</ele>
        <time>2016-04-13T09:14:27Z</time>
      </trkpt>
      <trkpt lat="28.234823764024" lon="-13.986524154924">
        <ele>38.4</ele>
        <time>2016-04-13T09:14:35Z</time>
      </trkpt>
      <trkpt lat="28.234847149525" lon="-13.986517114128">
        <ele>38.6</ele>
        <time>2016-04-13T09:14:36Z</time>
      </trkpt>
      <trkpt lat="28.235043788899" lon="-13.986496913749">
        <ele>39.2</ele>
        <time>2016-04-13T09:14:44Z</time>
      </trkpt>
      <trkpt lat="28.23511495123" lon="-13.9864825807">
        <ele>39.8</ele>
        <time>2016-04-13T09:14:47Z</time>
      </trkpt>
      <trkpt lat="28.235314356631" lon="-13.986457099724">
        <ele>40.8</ele>
        <time>2016-04-13T09:14:55Z</time>
      </trkpt>
      <trkpt lat="28.23534126253" lon="-13.986452657317">
        <ele>41</ele>
        <time>2016-04-13T09:14:56Z</time>
      </trkpt>
      <trkpt lat="28.235518791172" lon="-13.986417704794">
        <ele>41.4</ele>
        <time>2016-04-13T09:15:04Z</time>
      </trkpt>
      <trkpt lat="28.235636724505" lon="-13.986385015384">
        <ele>42.2</ele>
        <time>2016-04-13T09:15:09Z</time>
      </trkpt>
      <trkpt lat="28.235806290342" lon="-13.986305219696">
        <ele>43</ele>
        <time>2016-04-13T09:15:17Z</time>
      </trkpt>
      <trkpt lat="28.235856414104" lon="-13.986284013489">
        <ele>43.2</ele>
        <time>2016-04-13T09:15:19Z</time>
      </trkpt>
      <trkpt lat="28.236020280249" lon="-13.986189046562">
        <ele>44.2</ele>
        <time>2016-04-13T09:15:27Z</time>
      </trkpt>
      <trkpt lat="28.236063614672" lon="-13.986165493423">
        <ele>44.4</ele>
        <time>2016-04-13T09:15:29Z</time>
      </trkpt>
      <trkpt lat="28.236208537723" lon="-13.986095672196">
        <ele>45.4</ele>
        <time>2016-04-13T09:15:35Z</time>
      </trkpt>
      <trkpt lat="28.236390424953" lon="-13.986006237323">
        <ele>46.2</ele>
        <time>2016-04-13T09:15:43Z</time>
      </trkpt>
      <trkpt lat="28.236409032771" lon="-13.985991149903">
        <ele>46.6</ele>
        <time>2016-04-13T09:15:44Z</time>
      </trkpt>
      <trkpt lat="28.236577006047" lon="-13.98590339141">
        <ele>47.2</ele>
        <time>2016-04-13T09:15:52Z</time>
      </trkpt>
      <trkpt lat="28.23661531133" lon="-13.985878497167">
        <ele>47.6</ele>
        <time>2016-04-13T09:15:54Z</time>
      </trkpt>
      <trkpt lat="28.236803820261" lon="-13.985797528013">
        <ele>48.2</ele>
        <time>2016-04-13T09:16:03Z</time>
      </trkpt>
      <trkpt lat="28.236858134973" lon="-13.985780680394">
        <ele>48.8</ele>
        <time>2016-04-13T09:16:05Z</time>
      </trkpt>
      <trkpt lat="28.237027616991" lon="-13.985705327113">
        <ele>49</ele>
        <time>2016-04-13T09:16:12Z</time>
      </trkpt>
      <trkpt lat="28.237101796806" lon="-13.985670123133">
        <ele>49.8</ele>
        <time>2016-04-13T09:16:15Z</time>
      </trkpt>
      <trkpt lat="28.237275721231" lon="-13.985581694088">
        <ele>50.2</ele>
        <time>2016-04-13T09:16:23Z</time>
      </trkpt>
      <trkpt lat="28.237339339852" lon="-13.985553195628">
        <ele>50.8</ele>
        <time>2016-04-13T09:16:26Z</time>
      </trkpt>
      <trkpt lat="28.237520807987" lon="-13.985465185678">
        <ele>51.8</ele>
        <time>2016-04-13T09:16:34Z</time>
      </trkpt>
      <trkpt lat="28.237542433289" lon="-13.985455211217">
        <ele>52</ele>
        <time>2016-04-13T09:16:35Z</time>
      </trkpt>
      <trkpt lat="28.237703533407" lon="-13.985354125503">
        <ele>53</ele>
        <time>2016-04-13T09:16:43Z</time>
      </trkpt>
      <trkpt lat="28.237725158709" lon="-13.985345408327">
        <ele>53</ele>
        <time>2016-04-13T09:16:44Z</time>
      </trkpt>
      <trkpt lat="28.237916349848" lon="-13.985261170232">
        <ele>54</ele>
        <time>2016-04-13T09:16:52Z</time>
      </trkpt>
      <trkpt lat="28.237945351222" lon="-13.985248429744">
        <ele>54.2</ele>
        <time>2016-04-13T09:16:53Z</time>
      </trkpt>
      <trkpt lat="28.238127238452" lon="-13.985173663196">
        <ele>54.8</ele>
        <time>2016-04-13T09:17:01Z</time>
      </trkpt>
      <trkpt lat="28.23822128337" lon="-13.98513225661">
        <ele>55.2</ele>
        <time>2016-04-13T09:17:05Z</time>
      </trkpt>
      <trkpt lat="28.23837215757" lon="-13.985058914985">
        <ele>56.4</ele>
        <time>2016-04-13T09:17:11Z</time>
      </trkpt>
      <trkpt lat="28.238543399787" lon="-13.984966378809">
        <ele>57.2</ele>
        <time>2016-04-13T09:17:19Z</time>
      </trkpt>
      <trkpt lat="28.238662338948" lon="-13.984909717165">
        <ele>57.4</ele>
        <time>2016-04-13T09:17:24Z</time>
      </trkpt>
      <trkpt lat="28.238787732172" lon="-13.984832100771">
        <ele>58.6</ele>
        <time>2016-04-13T09:17:30Z</time>
      </trkpt>
      <trkpt lat="28.238958722932" lon="-13.984752221264">
        <ele>59.2</ele>
        <time>2016-04-13T09:17:37Z</time>
      </trkpt>
      <trkpt lat="28.239067519994" lon="-13.984699499113">
        <ele>60</ele>
        <time>2016-04-13T09:17:42Z</time>
      </trkpt>
      <trkpt lat="28.23924303698" lon="-13.984638730338">
        <ele>61.2</ele>
        <time>2016-04-13T09:17:50Z</time>
      </trkpt>
      <trkpt lat="28.239388965859" lon="-13.984603107263">
        <ele>61.8</ele>
        <time>2016-04-13T09:17:56Z</time>
      </trkpt>
      <trkpt lat="28.239529865598" lon="-13.984576871916">
        <ele>62.4</ele>
        <time>2016-04-13T09:18:02Z</time>
      </trkpt>
      <trkpt lat="28.239731450293" lon="-13.984585672911">
        <ele>63.6</ele>
        <time>2016-04-13T09:18:10Z</time>
      </trkpt>
      <trkpt lat="28.239848293979" lon="-13.984598581037">
        <ele>64.8</ele>
        <time>2016-04-13T09:18:15Z</time>
      </trkpt>
      <trkpt lat="28.240039652756" lon="-13.984599083951">
        <ele>65.6</ele>
        <time>2016-04-13T09:18:23Z</time>
      </trkpt>
      <trkpt lat="28.240062535343" lon="-13.984600425055">
        <ele>66</ele>
        <time>2016-04-13T09:18:24Z</time>
      </trkpt>
      <trkpt lat="28.240168985473" lon="-13.984627833868">
        <ele>67</ele>
        <time>2016-04-13T09:18:29Z</time>
      </trkpt>
      <trkpt lat="28.240294043421" lon="-13.98465784107">
        <ele>68.2</ele>
        <time>2016-04-13T09:18:35Z</time>
      </trkpt>
      <trkpt lat="28.240428572916" lon="-13.984676616526">
        <ele>69.4</ele>
        <time>2016-04-13T09:18:41Z</time>
      </trkpt>
      <trkpt lat="28.240564611153" lon="-13.984703690063">
        <ele>70.4</ele>
        <time>2016-04-13T09:18:47Z</time>
      </trkpt>
      <trkpt lat="28.240707271091" lon="-13.984727075564">
        <ele>71.4</ele>
        <time>2016-04-13T09:18:53Z</time>
      </trkpt>
      <trkpt lat="28.240798549982" lon="-13.984739564595">
        <ele>72.4</ele>
        <time>2016-04-13T09:18:57Z</time>
      </trkpt>
      <trkpt lat="28.240973815511" lon="-13.984764375019">
        <ele>73.6</ele>
        <time>2016-04-13T09:19:04Z</time>
      </trkpt>
      <trkpt lat="28.241144638633" lon="-13.984797651162">
        <ele>74.8</ele>
        <time>2016-04-13T09:19:11Z</time>
      </trkpt>
      <trkpt lat="28.241345468957" lon="-13.984830675848">
        <ele>75.8</ele>
        <time>2016-04-13T09:19:20Z</time>
      </trkpt>
      <trkpt lat="28.24141059632" lon="-13.984831178762">
        <ele>76</ele>
        <time>2016-04-13T09:19:23Z</time>
      </trkpt>
      <trkpt lat="28.241600530174" lon="-13.984852720245">
        <ele>75.8</ele>
        <time>2016-04-13T09:19:32Z</time>
      </trkpt>
      <trkpt lat="28.241795828444" lon="-13.984890438795">
        <ele>76.2</ele>
        <time>2016-04-13T09:19:41Z</time>
      </trkpt>
      <trkpt lat="28.241976542208" lon="-13.984920110721">
        <ele>75.8</ele>
        <time>2016-04-13T09:19:49Z</time>
      </trkpt>
      <trkpt lat="28.242166559881" lon="-13.984943831498">
        <ele>75.6</ele>
        <time>2016-04-13T09:19:57Z</time>
      </trkpt>
      <trkpt lat="28.242353392432" lon="-13.984960260022">
        <ele>75.2</ele>
        <time>2016-04-13T09:20:05Z</time>
      </trkpt>
      <trkpt lat="28.242542907191" lon="-13.9849822206">
        <ele>75.6</ele>
        <time>2016-04-13T09:20:13Z</time>
      </trkpt>
      <trkpt lat="28.242743486058" lon="-13.985010383784">
        <ele>75.4</ele>
        <time>2016-04-13T09:20:21Z</time>
      </trkpt>
      <trkpt lat="28.242932414084" lon="-13.985008539766">
        <ele>75.2</ele>
        <time>2016-04-13T09:20:29Z</time>
      </trkpt>
      <trkpt lat="28.243113127848" lon="-13.984955230882">
        <ele>75.4</ele>
        <time>2016-04-13T09:20:37Z</time>
      </trkpt>
      <trkpt lat="28.243295853268" lon="-13.984886247845">
        <ele>75.8</ele>
        <time>2016-04-13T09:20:45Z</time>
      </trkpt>
      <trkpt lat="28.243449577314" lon="-13.984773092195">
        <ele>76.4</ele>
        <time>2016-04-13T09:20:53Z</time>
      </trkpt>
      <trkpt lat="28.243589303587" lon="-13.984634036474">
        <ele>77</ele>
        <time>2016-04-13T09:21:01Z</time>
      </trkpt>
      <trkpt lat="28.243730119507" lon="-13.984496824771">
        <ele>77.6</ele>
        <time>2016-04-13T09:21:08Z</time>
      </trkpt>
      <trkpt lat="28.243803880227" lon="-13.984415017427">
        <ele>78.2</ele>
        <time>2016-04-13T09:21:12Z</time>
      </trkpt>
      <trkpt lat="28.243938661179" lon="-13.984247379427">
        <ele>78.6</ele>
        <time>2016-04-13T09:21:20Z</time>
      </trkpt>
      <trkpt lat="28.244072352484" lon="-13.984078567961">
        <ele>79.4</ele>
        <time>2016-04-13T09:21:28Z</time>
      </trkpt>
      <trkpt lat="28.244204954142" lon="-13.983927693761">
        <ele>80</ele>
        <time>2016-04-13T09:21:35Z</time>
      </trkpt>
      <trkpt lat="28.24429480811" lon="-13.98379450537">
        <ele>80.4</ele>
        <time>2016-04-13T09:21:41Z</time>
      </trkpt>
      <trkpt lat="28.244426068664" lon="-13.983639607858">
        <ele>81</ele>
        <time>2016-04-13T09:21:49Z</time>
      </trkpt>
      <trkpt lat="28.24449765009" lon="-13.983562913473">
        <ele>81.6</ele>
        <time>2016-04-13T09:21:53Z</time>
      </trkpt>
      <trkpt lat="28.244631676671" lon="-13.983402148631">
        <ele>82.2</ele>
        <time>2016-04-13T09:22:01Z</time>
      </trkpt>
      <trkpt lat="28.244702084631" lon="-13.983313049034">
        <ele>82.6</ele>
        <time>2016-04-13T09:22:05Z</time>
      </trkpt>
      <trkpt lat="28.244822197258" lon="-13.983154714943">
        <ele>83.2</ele>
        <time>2016-04-13T09:22:12Z</time>
      </trkpt>
      <trkpt lat="28.244906267715" lon="-13.983040469646">
        <ele>83.8</ele>
        <time>2016-04-13T09:22:17Z</time>
      </trkpt>
      <trkpt lat="28.245026464161" lon="-13.982862857185">
        <ele>84.2</ele>
        <time>2016-04-13T09:22:25Z</time>
      </trkpt>
      <trkpt lat="28.245117156319" lon="-13.982748528069">
        <ele>84.8</ele>
        <time>2016-04-13T09:22:30Z</time>
      </trkpt>
      <trkpt lat="28.245226204838" lon="-13.982576531481">
        <ele>85.4</ele>
        <time>2016-04-13T09:22:37Z</time>
      </trkpt>
      <trkpt lat="28.245327122914" lon="-13.982404115798">
        <ele>85.6</ele>
        <time>2016-04-13T09:22:44Z</time>
      </trkpt>
      <trkpt lat="28.245415132864" lon="-13.982217199428">
        <ele>85.6</ele>
        <time>2016-04-13T09:22:51Z</time>
      </trkpt>
      <trkpt lat="28.245450253025" lon="-13.982098260267">
        <ele>85.8</ele>
        <time>2016-04-13T09:22:55Z</time>
      </trkpt>
      <trkpt lat="28.245511608533" lon="-13.981891981708">
        <ele>86</ele>
        <time>2016-04-13T09:23:02Z</time>
      </trkpt>
      <trkpt lat="28.24553197655" lon="-13.981747393933">
        <ele>87</ele>
        <time>2016-04-13T09:23:07Z</time>
      </trkpt>
      <trkpt lat="28.245515296569" lon="-13.98152468685">
        <ele>88</ele>
        <time>2016-04-13T09:23:15Z</time>
      </trkpt>
      <trkpt lat="28.245517811139" lon="-13.98149702658">
        <ele>88</ele>
        <time>2016-04-13T09:23:16Z</time>
      </trkpt>
      <trkpt lat="28.245517308225" lon="-13.981281779388">
        <ele>89</ele>
        <time>2016-04-13T09:23:24Z</time>
      </trkpt>
      <trkpt lat="28.245511608533" lon="-13.981225536839">
        <ele>89.2</ele>
        <time>2016-04-13T09:23:26Z</time>
      </trkpt>
      <trkpt lat="28.245498951864" lon="-13.980997884435">
        <ele>90.2</ele>
        <time>2016-04-13T09:23:34Z</time>
      </trkpt>
      <trkpt lat="28.245486965747" lon="-13.980852793746">
        <ele>91.2</ele>
        <time>2016-04-13T09:23:39Z</time>
      </trkpt>
      <trkpt lat="28.245478751485" lon="-13.980646096092">
        <ele>92.2</ele>
        <time>2016-04-13T09:23:47Z</time>
      </trkpt>
      <trkpt lat="28.245486881928" lon="-13.980571832458">
        <ele>92.4</ele>
        <time>2016-04-13T09:23:50Z</time>
      </trkpt>
      <trkpt lat="28.245482774797" lon="-13.980410899978">
        <ele>93.4</ele>
        <time>2016-04-13T09:23:56Z</time>
      </trkpt>
      <trkpt lat="28.245488977403" lon="-13.980274777922">
        <ele>94.4</ele>
        <time>2016-04-13T09:24:01Z</time>
      </trkpt>
      <trkpt lat="28.245505238289" lon="-13.980070175743">
        <ele>95.2</ele>
        <time>2016-04-13T09:24:09Z</time>
      </trkpt>
      <trkpt lat="28.245497107846" lon="-13.979990044779">
        <ele>95.6</ele>
        <time>2016-04-13T09:24:12Z</time>
      </trkpt>
      <trkpt lat="28.245473806164" lon="-13.97980555916">
        <ele>96.8</ele>
        <time>2016-04-13T09:24:19Z</time>
      </trkpt>
      <trkpt lat="28.245462825875" lon="-13.979622079369">
        <ele>97.8</ele>
        <time>2016-04-13T09:24:26Z</time>
      </trkpt>
      <trkpt lat="28.245426448429" lon="-13.979408173281">
        <ele>98.4</ele>
        <time>2016-04-13T09:24:34Z</time>
      </trkpt>
      <trkpt lat="28.245405745136" lon="-13.979262076764">
        <ele>98.8</ele>
        <time>2016-04-13T09:24:40Z</time>
      </trkpt>
      <trkpt lat="28.245373726278" lon="-13.979053115997">
        <ele>100</ele>
        <time>2016-04-13T09:24:48Z</time>
      </trkpt>
      <trkpt lat="28.245358052125" lon="-13.978921855443">
        <ele>101</ele>
        <time>2016-04-13T09:24:53Z</time>
      </trkpt>
      <trkpt lat="28.245309269467" lon="-13.978698896903">
        <ele>102</ele>
        <time>2016-04-13T09:25:01Z</time>
      </trkpt>
      <trkpt lat="28.245275406591" lon="-13.978486415738">
        <ele>103</ele>
        <time>2016-04-13T09:25:09Z</time>
      </trkpt>
      <trkpt lat="28.245263588112" lon="-13.97844182403">
        <ele>103.2</ele>
        <time>2016-04-13T09:25:11Z</time>
      </trkpt>
      <trkpt lat="28.245224277001" lon="-13.97826580413">
        <ele>104.2</ele>
        <time>2016-04-13T09:25:18Z</time>
      </trkpt>
      <trkpt lat="28.245140038906" lon="-13.978075283543">
        <ele>105.2</ele>
        <time>2016-04-13T09:25:26Z</time>
      </trkpt>
      <trkpt lat="28.245112797731" lon="-13.978027506713">
        <ele>105.4</ele>
        <time>2016-04-13T09:25:28Z</time>
      </trkpt>
      <trkpt lat="28.245020848288" lon="-13.977856935048">
        <ele>106.4</ele>
        <time>2016-04-13T09:25:35Z</time>
      </trkpt>
      <trkpt lat="28.244935436727" lon="-13.97764973448">
        <ele>107</ele>
        <time>2016-04-13T09:25:44Z</time>
      </trkpt>
      <trkpt lat="28.244891180295" lon="-13.977503973239">
        <ele>107.8</ele>
        <time>2016-04-13T09:25:50Z</time>
      </trkpt>
      <trkpt lat="28.244835105384" lon="-13.977361061844">
        <ele>108.8</ele>
        <time>2016-04-13T09:25:56Z</time>
      </trkpt>
      <trkpt lat="28.244778779016" lon="-13.977229214557">
        <ele>110</ele>
        <time>2016-04-13T09:26:02Z</time>
      </trkpt>
      <trkpt lat="28.244669311402" lon="-13.97703450302">
        <ele>111</ele>
        <time>2016-04-13T09:26:11Z</time>
      </trkpt>
      <trkpt lat="28.244571494629" lon="-13.976870385418">
        <ele>112</ele>
        <time>2016-04-13T09:26:19Z</time>
      </trkpt>
      <trkpt lat="28.244485328697" lon="-13.976690761301">
        <ele>113.4</ele>
        <time>2016-04-13T09:26:27Z</time>
      </trkpt>
      <trkpt lat="28.244415339832" lon="-13.976510801908">
        <ele>114.4</ele>
        <time>2016-04-13T09:26:35Z</time>
      </trkpt>
      <trkpt lat="28.244395558548" lon="-13.97644190269">
        <ele>114.8</ele>
        <time>2016-04-13T09:26:38Z</time>
      </trkpt>
      <trkpt lat="28.244374017065" lon="-13.976352719274">
        <ele>115.6</ele>
        <time>2016-04-13T09:26:42Z</time>
      </trkpt>
      <trkpt lat="28.244330598823" lon="-13.976220704349">
        <ele>116.8</ele>
        <time>2016-04-13T09:26:48Z</time>
      </trkpt>
      <trkpt lat="28.244277122301" lon="-13.976059101317">
        <ele>117.8</ele>
        <time>2016-04-13T09:26:55Z</time>
      </trkpt>
      <trkpt lat="28.244230854213" lon="-13.975862294305">
        <ele>119</ele>
        <time>2016-04-13T09:27:03Z</time>
      </trkpt>
      <trkpt lat="28.244224148693" lon="-13.975693734296">
        <ele>120.2</ele>
        <time>2016-04-13T09:27:09Z</time>
      </trkpt>
      <trkpt lat="28.244245941633" lon="-13.975476223991">
        <ele>121</ele>
        <time>2016-04-13T09:27:17Z</time>
      </trkpt>
      <trkpt lat="28.244248037108" lon="-13.975455017784">
        <ele>121.2</ele>
        <time>2016-04-13T09:27:18Z</time>
      </trkpt>
      <trkpt lat="28.244332861936" lon="-13.975272376183">
        <ele>122.4</ele>
        <time>2016-04-13T09:27:26Z</time>
      </trkpt>
      <trkpt lat="28.244411148882" lon="-13.975128039865">
        <ele>123.4</ele>
        <time>2016-04-13T09:27:34Z</time>
      </trkpt>
      <trkpt lat="28.244532183518" lon="-13.974977500941">
        <ele>124.6</ele>
        <time>2016-04-13T09:27:43Z</time>
      </trkpt>
      <trkpt lat="28.244622205124" lon="-13.974841043609">
        <ele>125.6</ele>
        <time>2016-04-13T09:27:50Z</time>
      </trkpt>
      <trkpt lat="28.244699150966" lon="-13.974716153299">
        <ele>126.8</ele>
        <time>2016-04-13T09:27:56Z</time>
      </trkpt>
      <trkpt lat="28.244795710454" lon="-13.974555137">
        <ele>128</ele>
        <time>2016-04-13T09:28:03Z</time>
      </trkpt>
      <trkpt lat="28.24483711704" lon="-13.974465366851">
        <ele>128.8</ele>
        <time>2016-04-13T09:28:07Z</time>
      </trkpt>
      <trkpt lat="28.244847259139" lon="-13.974417506202">
        <ele>129.2</ele>
        <time>2016-04-13T09:28:09Z</time>
      </trkpt>
      <trkpt lat="28.244890006829" lon="-13.974266548183">
        <ele>130.2</ele>
        <time>2016-04-13T09:28:15Z</time>
      </trkpt>
      <trkpt lat="28.244875506142" lon="-13.974062951832">
        <ele>130.8</ele>
        <time>2016-04-13T09:28:22Z</time>
      </trkpt>
      <trkpt lat="28.24484130799" lon="-13.973860109852">
        <ele>130</ele>
        <time>2016-04-13T09:28:29Z</time>
      </trkpt>
      <trkpt lat="28.244780287758" lon="-13.973653663655">
        <ele>129.6</ele>
        <time>2016-04-13T09:28:36Z</time>
      </trkpt>
      <trkpt lat="28.244710466531" lon="-13.97344285887">
        <ele>129.4</ele>
        <time>2016-04-13T09:28:43Z</time>
      </trkpt>
      <trkpt lat="28.24465942076" lon="-13.973304808977">
        <ele>129.2</ele>
        <time>2016-04-13T09:28:48Z</time>
      </trkpt>
      <trkpt lat="28.244551126612" lon="-13.973108672517">
        <ele>129</ele>
        <time>2016-04-13T09:28:56Z</time>
      </trkpt>
      <trkpt lat="28.244409137226" lon="-13.972944722553">
        <ele>128.6</ele>
        <time>2016-04-13T09:29:04Z</time>
      </trkpt>
      <trkpt lat="28.244259268854" lon="-13.972822765908">
        <ele>129</ele>
        <time>2016-04-13T09:29:11Z</time>
      </trkpt>
      <trkpt lat="28.24408274604" lon="-13.972737773442">
        <ele>129.4</ele>
        <time>2016-04-13T09:29:19Z</time>
      </trkpt>
      <trkpt lat="28.243921645922" lon="-13.972684883653">
        <ele>130.2</ele>
        <time>2016-04-13T09:29:26Z</time>
      </trkpt>
      <trkpt lat="28.243784266581" lon="-13.972662923075">
        <ele>131.4</ele>
        <time>2016-04-13T09:29:32Z</time>
      </trkpt>
      <trkpt lat="28.243609503966" lon="-13.972634508434">
        <ele>132.4</ele>
        <time>2016-04-13T09:29:40Z</time>
      </trkpt>
      <trkpt lat="28.243478746326" lon="-13.972585222862">
        <ele>133.6</ele>
        <time>2016-04-13T09:29:46Z</time>
      </trkpt>
      <trkpt lat="28.243316556561" lon="-13.972549013054">
        <ele>134.6</ele>
        <time>2016-04-13T09:29:53Z</time>
      </trkpt>
      <trkpt lat="28.243195186649" lon="-13.972526465743">
        <ele>135.6</ele>
        <time>2016-04-13T09:29:59Z</time>
      </trkpt>
      <trkpt lat="28.243072391814" lon="-13.972498554016">
        <ele>136.8</ele>
        <time>2016-04-13T09:30:04Z</time>
      </trkpt>
      <trkpt lat="28.242955715766" lon="-13.972471480479">
        <ele>138</ele>
        <time>2016-04-13T09:30:09Z</time>
      </trkpt>
      <trkpt lat="28.242787407214" lon="-13.972395708103">
        <ele>139.4</ele>
        <time>2016-04-13T09:30:17Z</time>
      </trkpt>
      <trkpt lat="28.242688500794" lon="-13.972310380361">
        <ele>140.4</ele>
        <time>2016-04-13T09:30:22Z</time>
      </trkpt>
      <trkpt lat="28.242553719842" lon="-13.972189010449">
        <ele>141.8</ele>
        <time>2016-04-13T09:30:29Z</time>
      </trkpt>
      <trkpt lat="28.242410976085" lon="-13.972055486782">
        <ele>141.8</ele>
        <time>2016-04-13T09:30:37Z</time>
      </trkpt>
      <trkpt lat="28.242280972816" lon="-13.971899331985">
        <ele>142</ele>
        <time>2016-04-13T09:30:45Z</time>
      </trkpt>
      <trkpt lat="28.24216329094" lon="-13.97173462765">
        <ele>142.2</ele>
        <time>2016-04-13T09:30:52Z</time>
      </trkpt>
      <trkpt lat="28.242063630149" lon="-13.971541089579">
        <ele>141.4</ele>
        <time>2016-04-13T09:30:59Z</time>
      </trkpt>
      <trkpt lat="28.241997916053" lon="-13.971349395526">
        <ele>141</ele>
        <time>2016-04-13T09:31:05Z</time>
      </trkpt>
      <trkpt lat="28.241976206932" lon="-13.971258703368">
        <ele>140.4</ele>
        <time>2016-04-13T09:31:08Z</time>
      </trkpt>
      <trkpt lat="28.241959107856" lon="-13.971147140279">
        <ele>139.4</ele>
        <time>2016-04-13T09:31:12Z</time>
      </trkpt>
      <trkpt lat="28.241924658247" lon="-13.970927869775">
        <ele>138.6</ele>
        <time>2016-04-13T09:31:19Z</time>
      </trkpt>
      <trkpt lat="28.241914683786" lon="-13.970863832059">
        <ele>138.4</ele>
        <time>2016-04-13T09:31:21Z</time>
      </trkpt>
      <trkpt lat="28.241866152585" lon="-13.97063408418">
        <ele>137.6</ele>
        <time>2016-04-13T09:31:28Z</time>
      </trkpt>
      <trkpt lat="28.241849640242" lon="-13.970539620167">
        <ele>137</ele>
        <time>2016-04-13T09:31:31Z</time>
      </trkpt>
      <trkpt lat="28.241820638868" lon="-13.970400396808">
        <ele>136.6</ele>
        <time>2016-04-13T09:31:35Z</time>
      </trkpt>
      <trkpt lat="28.241808988027" lon="-13.970332838694">
        <ele>136</ele>
        <time>2016-04-13T09:31:37Z</time>
      </trkpt>
      <trkpt lat="28.241785183431" lon="-13.970167799083">
        <ele>134.8</ele>
        <time>2016-04-13T09:31:42Z</time>
      </trkpt>
      <trkpt lat="28.241732126004" lon="-13.969940565774">
        <ele>133.6</ele>
        <time>2016-04-13T09:31:49Z</time>
      </trkpt>
      <trkpt lat="28.241700693879" lon="-13.96977493943">
        <ele>132.6</ele>
        <time>2016-04-13T09:31:54Z</time>
      </trkpt>
      <trkpt lat="28.241650989212" lon="-13.969546532655">
        <ele>131.6</ele>
        <time>2016-04-13T09:32:01Z</time>
      </trkpt>
      <trkpt lat="28.24164361314" lon="-13.969509736114">
        <ele>131.2</ele>
        <time>2016-04-13T09:32:02Z</time>
      </trkpt>
      <trkpt lat="28.241592902645" lon="-13.969302116451">
        <ele>130.4</ele>
        <time>2016-04-13T09:32:08Z</time>
      </trkpt>
      <trkpt lat="28.241565996746" lon="-13.969210669922">
        <ele>130</ele>
        <time>2016-04-13T09:32:11Z</time>
      </trkpt>
      <trkpt lat="28.24152710473" lon="-13.968989052486">
        <ele>129</ele>
        <time>2016-04-13T09:32:18Z</time>
      </trkpt>
      <trkpt lat="28.241515789165" lon="-13.968954686696">
        <ele>128.8</ele>
        <time>2016-04-13T09:32:19Z</time>
      </trkpt>
      <trkpt lat="28.241466838869" lon="-13.968779672624">
        <ele>127.8</ele>
        <time>2016-04-13T09:32:24Z</time>
      </trkpt>
      <trkpt lat="28.241403974619" lon="-13.96857548954">
        <ele>126.8</ele>
        <time>2016-04-13T09:32:30Z</time>
      </trkpt>
      <trkpt lat="28.241316383764" lon="-13.968379101623">
        <ele>125.8</ele>
        <time>2016-04-13T09:32:36Z</time>
      </trkpt>
      <trkpt lat="28.24128738239" lon="-13.968308358387">
        <ele>125.6</ele>
        <time>2016-04-13T09:32:38Z</time>
      </trkpt>
      <trkpt lat="28.241183363011" lon="-13.968103337113">
        <ele>124.4</ele>
        <time>2016-04-13T09:32:45Z</time>
      </trkpt>
      <trkpt lat="28.241076493786" lon="-13.967939470968">
        <ele>124</ele>
        <time>2016-04-13T09:32:51Z</time>
      </trkpt>
      <trkpt lat="28.240967026172" lon="-13.967786836569">
        <ele>123.4</ele>
        <time>2016-04-13T09:32:57Z</time>
      </trkpt>
      <trkpt lat="28.240833334867" lon="-13.967642416432">
        <ele>122.8</ele>
        <time>2016-04-13T09:33:03Z</time>
      </trkpt>
      <trkpt lat="28.240733087343" lon="-13.9675646324">
        <ele>122.4</ele>
        <time>2016-04-13T09:33:07Z</time>
      </trkpt>
      <trkpt lat="28.240547176801" lon="-13.967461451211">
        <ele>121.8</ele>
        <time>2016-04-13T09:33:14Z</time>
      </trkpt>
      <trkpt lat="28.240414575143" lon="-13.967391210889">
        <ele>121.2</ele>
        <time>2016-04-13T09:33:19Z</time>
      </trkpt>
      <trkpt lat="28.240227742592" lon="-13.96729557341">
        <ele>120.8</ele>
        <time>2016-04-13T09:33:26Z</time>
      </trkpt>
      <trkpt lat="28.240060523687" lon="-13.967214352799">
        <ele>120.4</ele>
        <time>2016-04-13T09:33:32Z</time>
      </trkpt>
      <trkpt lat="28.240032276684" lon="-13.967201193216">
        <ele>120.2</ele>
        <time>2016-04-13T09:33:33Z</time>
      </trkpt>
      <trkpt lat="28.239847036694" lon="-13.967103711719">
        <ele>119.6</ele>
        <time>2016-04-13T09:33:40Z</time>
      </trkpt>
      <trkpt lat="28.239670094785" lon="-13.967024167488">
        <ele>119.4</ele>
        <time>2016-04-13T09:33:47Z</time>
      </trkpt>
      <trkpt lat="28.239644446171" lon="-13.967009834439">
        <ele>119.2</ele>
        <time>2016-04-13T09:33:48Z</time>
      </trkpt>
      <trkpt lat="28.239472533402" lon="-13.966926099258">
        <ele>118.8</ele>
        <time>2016-04-13T09:33:54Z</time>
      </trkpt>
      <trkpt lat="28.239370525679" lon="-13.966862480637">
        <ele>118.6</ele>
        <time>2016-04-13T09:33:58Z</time>
      </trkpt>
      <trkpt lat="28.239263572635" lon="-13.966788552279">
        <ele>118.2</ele>
        <time>2016-04-13T09:34:02Z</time>
      </trkpt>
      <trkpt lat="28.239111524969" lon="-13.966669864575">
        <ele>117.8</ele>
        <time>2016-04-13T09:34:08Z</time>
      </trkpt>
      <trkpt lat="28.238950005756" lon="-13.966526785542">
        <ele>117</ele>
        <time>2016-04-13T09:34:15Z</time>
      </trkpt>
      <trkpt lat="28.238804747429" lon="-13.966392591323">
        <ele>116.4</ele>
        <time>2016-04-13T09:34:21Z</time>
      </trkpt>
      <trkpt lat="28.238739452428" lon="-13.966329643254">
        <ele>116</ele>
        <time>2016-04-13T09:34:24Z</time>
      </trkpt>
      <trkpt lat="28.23861439448" lon="-13.966175081018">
        <ele>115</ele>
        <time>2016-04-13T09:34:30Z</time>
      </trkpt>
      <trkpt lat="28.238595199929" lon="-13.966151863155">
        <ele>114.8</ele>
        <time>2016-04-13T09:34:31Z</time>
      </trkpt>
      <trkpt lat="28.238461676262" lon="-13.96599889348">
        <ele>114</ele>
        <time>2016-04-13T09:34:38Z</time>
      </trkpt>
      <trkpt lat="28.238401158944" lon="-13.965926054769">
        <ele>113.8</ele>
        <time>2016-04-13T09:34:41Z</time>
      </trkpt>
      <trkpt lat="28.238286075457" lon="-13.965767217764">
        <ele>113.6</ele>
        <time>2016-04-13T09:34:47Z</time>
      </trkpt>
      <trkpt lat="28.238168645038" lon="-13.965610057139">
        <ele>113.2</ele>
        <time>2016-04-13T09:34:53Z</time>
      </trkpt>
      <trkpt lat="28.238048700049" lon="-13.965451806867">
        <ele>113</ele>
        <time>2016-04-13T09:34:59Z</time>
      </trkpt>
      <trkpt lat="28.238029924593" lon="-13.965428589004">
        <ele>112.8</ele>
        <time>2016-04-13T09:35:00Z</time>
      </trkpt>
      <trkpt lat="28.237897239116" lon="-13.965256592416">
        <ele>112.4</ele>
        <time>2016-04-13T09:35:07Z</time>
      </trkpt>
      <trkpt lat="28.237819455084" lon="-13.965169839751">
        <ele>111.6</ele>
        <time>2016-04-13T09:35:11Z</time>
      </trkpt>
      <trkpt lat="28.237698085172" lon="-13.965014690782">
        <ele>111.4</ele>
        <time>2016-04-13T09:35:18Z</time>
      </trkpt>
      <trkpt lat="28.237573949233" lon="-13.964856356691">
        <ele>111.4</ele>
        <time>2016-04-13T09:35:25Z</time>
      </trkpt>
      <trkpt lat="28.237446125258" lon="-13.96467706785">
        <ele>110.8</ele>
        <time>2016-04-13T09:35:32Z</time>
      </trkpt>
      <trkpt lat="28.237350487779" lon="-13.964534072636">
        <ele>110.6</ele>
        <time>2016-04-13T09:35:37Z</time>
      </trkpt>
      <trkpt lat="28.237230626609" lon="-13.9643627466">
        <ele>110.4</ele>
        <time>2016-04-13T09:35:43Z</time>
      </trkpt>
      <trkpt lat="28.237111687448" lon="-13.964192258754">
        <ele>110</ele>
        <time>2016-04-13T09:35:49Z</time>
      </trkpt>
      <trkpt lat="28.237070532319" lon="-13.964139033689">
        <ele>109.6</ele>
        <time>2016-04-13T09:35:51Z</time>
      </trkpt>
      <trkpt lat="28.236947066932" lon="-13.963968545843">
        <ele>109.8</ele>
        <time>2016-04-13T09:35:58Z</time>
      </trkpt>
      <trkpt lat="28.236832486359" lon="-13.963800824024">
        <ele>109.2</ele>
        <time>2016-04-13T09:36:05Z</time>
      </trkpt>
      <trkpt lat="28.236736262147" lon="-13.963637963707">
        <ele>109.2</ele>
        <time>2016-04-13T09:36:11Z</time>
      </trkpt>
      <trkpt lat="28.236639199745" lon="-13.963449454776">
        <ele>108.8</ele>
        <time>2016-04-13T09:36:18Z</time>
      </trkpt>
      <trkpt lat="28.236574910572" lon="-13.963300340775">
        <ele>108.4</ele>
        <time>2016-04-13T09:36:23Z</time>
      </trkpt>
      <trkpt lat="28.23649377378" lon="-13.963087105239">
        <ele>108.4</ele>
        <time>2016-04-13T09:36:30Z</time>
      </trkpt>
      <trkpt lat="28.236408697495" lon="-13.962871858047">
        <ele>108.2</ele>
        <time>2016-04-13T09:36:37Z</time>
      </trkpt>
      <trkpt lat="28.236347593444" lon="-13.962731209765">
        <ele>107.4</ele>
        <time>2016-04-13T09:36:42Z</time>
      </trkpt>
      <trkpt lat="28.236280622063" lon="-13.96250699394">
        <ele>106.8</ele>
        <time>2016-04-13T09:36:49Z</time>
      </trkpt>
      <trkpt lat="28.236242987332" lon="-13.962348240754">
        <ele>106.4</ele>
        <time>2016-04-13T09:36:54Z</time>
      </trkpt>
      <trkpt lat="28.236197305977" lon="-13.962132239191">
        <ele>106</ele>
        <time>2016-04-13T09:37:01Z</time>
      </trkpt>
      <trkpt lat="28.236148858595" lon="-13.962006343053">
        <ele>105.2</ele>
        <time>2016-04-13T09:37:05Z</time>
      </trkpt>
      <trkpt lat="28.23609479534" lon="-13.961791095861">
        <ele>105.2</ele>
        <time>2016-04-13T09:37:12Z</time>
      </trkpt>
      <trkpt lat="28.236051293279" lon="-13.961600156179">
        <ele>104.2</ele>
        <time>2016-04-13T09:37:18Z</time>
      </trkpt>
      <trkpt lat="28.236007875037" lon="-13.961412653076">
        <ele>103.2</ele>
        <time>2016-04-13T09:37:24Z</time>
      </trkpt>
      <trkpt lat="28.235956577809" lon="-13.961225736706">
        <ele>102.2</ele>
        <time>2016-04-13T09:37:30Z</time>
      </trkpt>
      <trkpt lat="28.235903017468" lon="-13.961023732916">
        <ele>100.8</ele>
        <time>2016-04-13T09:37:36Z</time>
      </trkpt>
      <trkpt lat="28.235867310574" lon="-13.960882749358">
        <ele>99.8</ele>
        <time>2016-04-13T09:37:40Z</time>
      </trkpt>
      <trkpt lat="28.235826323083" lon="-13.960705639811">
        <ele>98.6</ele>
        <time>2016-04-13T09:37:45Z</time>
      </trkpt>
      <trkpt lat="28.235779468262" lon="-13.960517549975">
        <ele>97.4</ele>
        <time>2016-04-13T09:37:51Z</time>
      </trkpt>
      <trkpt lat="28.235722722799" lon="-13.960369860897">
        <ele>96.4</ele>
        <time>2016-04-13T09:37:55Z</time>
      </trkpt>
      <trkpt lat="28.235647704794" lon="-13.960177580111">
        <ele>95.6</ele>
        <time>2016-04-13T09:38:01Z</time>
      </trkpt>
      <trkpt lat="28.235613925737" lon="-13.959998458908">
        <ele>95.2</ele>
        <time>2016-04-13T09:38:07Z</time>
      </trkpt>
      <trkpt lat="28.235553995152" lon="-13.959805088475">
        <ele>95</ele>
        <time>2016-04-13T09:38:13Z</time>
      </trkpt>
      <trkpt lat="28.235488616332" lon="-13.959605766893">
        <ele>95.2</ele>
        <time>2016-04-13T09:38:20Z</time>
      </trkpt>
      <trkpt lat="28.23544352171" lon="-13.959397895773">
        <ele>95</ele>
        <time>2016-04-13T09:38:27Z</time>
      </trkpt>
      <trkpt lat="28.235385938057" lon="-13.95919362887">
        <ele>95.6</ele>
        <time>2016-04-13T09:38:34Z</time>
      </trkpt>
      <trkpt lat="28.235328354404" lon="-13.958996989496">
        <ele>95.2</ele>
        <time>2016-04-13T09:38:40Z</time>
      </trkpt>
      <trkpt lat="28.235272698588" lon="-13.958785346521">
        <ele>95.6</ele>
        <time>2016-04-13T09:38:47Z</time>
      </trkpt>
      <trkpt lat="28.235199273144" lon="-13.958588623328">
        <ele>95</ele>
        <time>2016-04-13T09:38:53Z</time>
      </trkpt>
      <trkpt lat="28.23513758236" lon="-13.958373459955">
        <ele>95.2</ele>
        <time>2016-04-13T09:39:00Z</time>
      </trkpt>
      <trkpt lat="28.235094918489" lon="-13.958158380401">
        <ele>94.6</ele>
        <time>2016-04-13T09:39:07Z</time>
      </trkpt>
      <trkpt lat="28.235034401171" lon="-13.957949671091">
        <ele>94.4</ele>
        <time>2016-04-13T09:39:14Z</time>
      </trkpt>
      <trkpt lat="28.235022582692" lon="-13.957891668343">
        <ele>94.2</ele>
        <time>2016-04-13T09:39:16Z</time>
      </trkpt>
      <trkpt lat="28.234970950188" lon="-13.957670889097">
        <ele>93.2</ele>
        <time>2016-04-13T09:39:23Z</time>
      </trkpt>
      <trkpt lat="28.234905739006" lon="-13.957475926103">
        <ele>92.2</ele>
        <time>2016-04-13T09:39:29Z</time>
      </trkpt>
      <trkpt lat="28.234874223062" lon="-13.957375930036">
        <ele>92.2</ele>
        <time>2016-04-13T09:39:32Z</time>
      </trkpt>
      <trkpt lat="28.23482912844" lon="-13.957175099712">
        <ele>91.2</ele>
        <time>2016-04-13T09:39:38Z</time>
      </trkpt>
      <trkpt lat="28.234795936116" lon="-13.957022465313">
        <ele>90.8</ele>
        <time>2016-04-13T09:39:43Z</time>
      </trkpt>
      <trkpt lat="28.234733993875" lon="-13.956804116818">
        <ele>89.6</ele>
        <time>2016-04-13T09:39:50Z</time>
      </trkpt>
      <trkpt lat="28.234700969189" lon="-13.956669168228">
        <ele>88.4</ele>
        <time>2016-04-13T09:39:54Z</time>
      </trkpt>
      <trkpt lat="28.234647911762" lon="-13.956471355388">
        <ele>88.4</ele>
        <time>2016-04-13T09:40:00Z</time>
      </trkpt>
      <trkpt lat="28.234620670587" lon="-13.956375047357">
        <ele>87.4</ele>
        <time>2016-04-13T09:40:03Z</time>
      </trkpt>
      <trkpt lat="28.234560572364" lon="-13.956172875929">
        <ele>87.2</ele>
        <time>2016-04-13T09:40:09Z</time>
      </trkpt>
      <trkpt lat="28.234508269308" lon="-13.956006159938">
        <ele>86.4</ele>
        <time>2016-04-13T09:40:14Z</time>
      </trkpt>
      <trkpt lat="28.2344552957" lon="-13.955777334068">
        <ele>86.4</ele>
        <time>2016-04-13T09:40:21Z</time>
      </trkpt>
      <trkpt lat="28.234397712047" lon="-13.95557600083">
        <ele>86.6</ele>
        <time>2016-04-13T09:40:28Z</time>
      </trkpt>
      <trkpt lat="28.234343481154" lon="-13.955374416135">
        <ele>85.6</ele>
        <time>2016-04-13T09:40:35Z</time>
      </trkpt>
      <trkpt lat="28.234311462296" lon="-13.955165790644">
        <ele>86</ele>
        <time>2016-04-13T09:40:42Z</time>
      </trkpt>
      <trkpt lat="28.23417617843" lon="-13.954741582685">
        <ele>86.2</ele>
        <time>2016-04-13T09:40:57Z</time>
      </trkpt>
      <trkpt lat="28.234084312806" lon="-13.954551816469">
        <ele>86.6</ele>
        <time>2016-04-13T09:41:03Z</time>
      </trkpt>
      <trkpt lat="28.234018179615" lon="-13.95445282623">
        <ele>87.4</ele>
        <time>2016-04-13T09:41:07Z</time>
      </trkpt>
      <trkpt lat="28.233890774735" lon="-13.954284936773">
        <ele>87.8</ele>
        <time>2016-04-13T09:41:14Z</time>
      </trkpt>
      <trkpt lat="28.233755323231" lon="-13.954122327913">
        <ele>88.4</ele>
        <time>2016-04-13T09:41:21Z</time>
      </trkpt>
      <trkpt lat="28.233667816195" lon="-13.954010178091">
        <ele>89.6</ele>
        <time>2016-04-13T09:41:27Z</time>
      </trkpt>
      <trkpt lat="28.233583326643" lon="-13.953818903133">
        <ele>90</ele>
        <time>2016-04-13T09:41:35Z</time>
      </trkpt>
      <trkpt lat="28.233507470448" lon="-13.953634249876">
        <ele>90.6</ele>
        <time>2016-04-13T09:41:42Z</time>
      </trkpt>
      <trkpt lat="28.233400265947" lon="-13.953491338481">
        <ele>91.8</ele>
        <time>2016-04-13T09:41:48Z</time>
      </trkpt>
      <trkpt lat="28.233326756684" lon="-13.953436017941">
        <ele>92.8</ele>
        <time>2016-04-13T09:41:52Z</time>
      </trkpt>
      <trkpt lat="28.233295995111" lon="-13.953425289109">
        <ele>94</ele>
        <time>2016-04-13T09:41:54Z</time>
      </trkpt>
      <trkpt lat="28.233258947113" lon="-13.953401987427">
        <ele>95</ele>
        <time>2016-04-13T09:41:56Z</time>
      </trkpt>
      <trkpt lat="28.23308820781" lon="-13.953328897259">
        <ele>96</ele>
        <time>2016-04-13T09:42:05Z</time>
      </trkpt>
      <trkpt lat="28.233073623304" lon="-13.953312552554">
        <ele>96.4</ele>
        <time>2016-04-13T09:42:06Z</time>
      </trkpt>
      <trkpt lat="28.233041772084" lon="-13.953237953644">
        <ele>97.4</ele>
        <time>2016-04-13T09:42:09Z</time>
      </trkpt>
      <trkpt lat="28.232980500395" lon="-13.953020024244">
        <ele>98.6</ele>
        <time>2016-04-13T09:42:18Z</time>
      </trkpt>
      <trkpt lat="28.232959797102" lon="-13.952946682619">
        <ele>100</ele>
        <time>2016-04-13T09:42:21Z</time>
      </trkpt>
      <trkpt lat="28.232938842352" lon="-13.952873592451">
        <ele>101</ele>
        <time>2016-04-13T09:42:24Z</time>
      </trkpt>
      <trkpt lat="28.232869104944" lon="-13.952686256986">
        <ele>101.6</ele>
        <time>2016-04-13T09:42:32Z</time>
      </trkpt>
      <trkpt lat="28.232863489071" lon="-13.952667062435">
        <ele>101.8</ele>
        <time>2016-04-13T09:42:33Z</time>
      </trkpt>
      <trkpt lat="28.232859465759" lon="-13.952649292807">
        <ele>102.2</ele>
        <time>2016-04-13T09:42:34Z</time>
      </trkpt>
      <trkpt lat="28.232831218756" lon="-13.952580980322">
        <ele>103.4</ele>
        <time>2016-04-13T09:42:37Z</time>
      </trkpt>
      <trkpt lat="28.232720158581" lon="-13.952456173831">
        <ele>104.4</ele>
        <time>2016-04-13T09:42:44Z</time>
      </trkpt>
      <trkpt lat="28.232672549389" lon="-13.95239590797">
        <ele>105.6</ele>
        <time>2016-04-13T09:42:48Z</time>
      </trkpt>
      <trkpt lat="28.232575822263" lon="-13.952314938816">
        <ele>106.6</ele>
        <time>2016-04-13T09:42:54Z</time>
      </trkpt>
      <trkpt lat="28.232471467608" lon="-13.952287194727">
        <ele>107.8</ele>
        <time>2016-04-13T09:42:59Z</time>
      </trkpt>
      <trkpt lat="28.232368118781" lon="-13.95230789802">
        <ele>108.8</ele>
        <time>2016-04-13T09:43:04Z</time>
      </trkpt>
      <trkpt lat="28.232283042496" lon="-13.952336312661">
        <ele>110.2</ele>
        <time>2016-04-13T09:43:09Z</time>
      </trkpt>
      <trkpt lat="28.23218547718" lon="-13.952349891339">
        <ele>111.4</ele>
        <time>2016-04-13T09:43:14Z</time>
      </trkpt>
      <trkpt lat="28.232119008713" lon="-13.952396662341">
        <ele>112.4</ele>
        <time>2016-04-13T09:43:18Z</time>
      </trkpt>
      <trkpt lat="28.232063185259" lon="-13.952409570467">
        <ele>113.4</ele>
        <time>2016-04-13T09:43:22Z</time>
      </trkpt>
      <trkpt lat="28.23205136678" lon="-13.952402697309">
        <ele>113.6</ele>
        <time>2016-04-13T09:43:23Z</time>
      </trkpt>
      <trkpt lat="28.231989675996" lon="-13.952312005151">
        <ele>114.6</ele>
        <time>2016-04-13T09:43:28Z</time>
      </trkpt>
      <trkpt lat="28.231961596631" lon="-13.952192479257">
        <ele>115.6</ele>
        <time>2016-04-13T09:43:33Z</time>
      </trkpt>
      <trkpt lat="28.231951538351" lon="-13.952076222304">
        <ele>116.8</ele>
        <time>2016-04-13T09:43:38Z</time>
      </trkpt>
      <trkpt lat="28.23186193584" lon="-13.95190975777">
        <ele>117.6</ele>
        <time>2016-04-13T09:43:45Z</time>
      </trkpt>
      <trkpt lat="28.231827402412" lon="-13.951876733084">
        <ele>117.8</ele>
        <time>2016-04-13T09:43:47Z</time>
      </trkpt>
      <trkpt lat="28.231752719683" lon="-13.951808672056">
        <ele>119</ele>
        <time>2016-04-13T09:43:52Z</time>
      </trkpt>
      <trkpt lat="28.231650795779" lon="-13.951778832492">
        <ele>120.2</ele>
        <time>2016-04-13T09:43:57Z</time>
      </trkpt>
      <trkpt lat="28.231569239892" lon="-13.951696186958">
        <ele>121.4</ele>
        <time>2016-04-13T09:44:02Z</time>
      </trkpt>
      <trkpt lat="28.231510566592" lon="-13.951636340192">
        <ele>122.6</ele>
        <time>2016-04-13T09:44:06Z</time>
      </trkpt>
      <trkpt lat="28.231451809473" lon="-13.951576074331">
        <ele>123.6</ele>
        <time>2016-04-13T09:44:10Z</time>
      </trkpt>
      <trkpt lat="28.231400344607" lon="-13.951538858695">
        <ele>124.6</ele>
        <time>2016-04-13T09:44:13Z</time>
      </trkpt>
      <trkpt lat="28.231342174221" lon="-13.951528213682">
        <ele>125.8</ele>
        <time>2016-04-13T09:44:17Z</time>
      </trkpt>
      <trkpt lat="28.231299594169" lon="-13.951554784305">
        <ele>126.8</ele>
        <time>2016-04-13T09:44:21Z</time>
      </trkpt>
      <trkpt lat="28.231281237808" lon="-13.95155101245">
        <ele>126.8</ele>
        <time>2016-04-13T09:44:23Z</time>
      </trkpt>
      <trkpt lat="28.2312617918" lon="-13.951544809844">
        <ele>127</ele>
        <time>2016-04-13T09:44:25Z</time>
      </trkpt>
      <trkpt lat="28.231206722717" lon="-13.951496027186">
        <ele>128</ele>
        <time>2016-04-13T09:44:31Z</time>
      </trkpt>
      <trkpt lat="28.231143774648" lon="-13.951432240927">
        <ele>129.2</ele>
        <time>2016-04-13T09:44:38Z</time>
      </trkpt>
      <trkpt lat="28.23110002113" lon="-13.951403071915">
        <ele>130.2</ele>
        <time>2016-04-13T09:44:42Z</time>
      </trkpt>
      <trkpt lat="28.231015112483" lon="-13.951320594019">
        <ele>131.4</ele>
        <time>2016-04-13T09:44:48Z</time>
      </trkpt>
      <trkpt lat="28.230927186352" lon="-13.951250269878">
        <ele>132.4</ele>
        <time>2016-04-13T09:44:53Z</time>
      </trkpt>
      <trkpt lat="28.230867507224" lon="-13.95122160378">
        <ele>133.6</ele>
        <time>2016-04-13T09:44:56Z</time>
      </trkpt>
      <trkpt lat="28.230787711536" lon="-13.951182795583">
        <ele>134.6</ele>
        <time>2016-04-13T09:45:00Z</time>
      </trkpt>
      <trkpt lat="28.230702802889" lon="-13.951175670968">
        <ele>135.6</ele>
        <time>2016-04-13T09:45:04Z</time>
      </trkpt>
      <trkpt lat="28.230602890641" lon="-13.95122244197">
        <ele>137</ele>
        <time>2016-04-13T09:45:09Z</time>
      </trkpt>
      <trkpt lat="28.2305158027" lon="-13.951250269878">
        <ele>138</ele>
        <time>2016-04-13T09:45:14Z</time>
      </trkpt>
      <trkpt lat="28.230469786069" lon="-13.951277259596">
        <ele>139.2</ele>
        <time>2016-04-13T09:45:17Z</time>
      </trkpt>
      <trkpt lat="28.230412453873" lon="-13.951326042254">
        <ele>140.4</ele>
        <time>2016-04-13T09:45:22Z</time>
      </trkpt>
      <trkpt lat="28.230373645676" lon="-13.951360324225">
        <ele>141.4</ele>
        <time>2016-04-13T09:45:28Z</time>
      </trkpt>
      <trkpt lat="28.230299382042" lon="-13.951425954502">
        <ele>142.6</ele>
        <time>2016-04-13T09:45:36Z</time>
      </trkpt>
      <trkpt lat="28.230262166406" lon="-13.95144204775">
        <ele>143.6</ele>
        <time>2016-04-13T09:45:40Z</time>
      </trkpt>
      <trkpt lat="28.230216401232" lon="-13.951465433251">
        <ele>144.8</ele>
        <time>2016-04-13T09:45:44Z</time>
      </trkpt>
      <trkpt lat="28.230134174793" lon="-13.951449088546">
        <ele>145.2</ele>
        <time>2016-04-13T09:45:50Z</time>
      </trkpt>
      <trkpt lat="28.230070891448" lon="-13.951408268693">
        <ele>145.8</ele>
        <time>2016-04-13T09:45:54Z</time>
      </trkpt>
      <trkpt lat="28.23001456508" lon="-13.951307769712">
        <ele>146.8</ele>
        <time>2016-04-13T09:45:58Z</time>
      </trkpt>
      <trkpt lat="28.229974667236" lon="-13.951186818895">
        <ele>148</ele>
        <time>2016-04-13T09:46:03Z</time>
      </trkpt>
      <trkpt lat="28.229945162948" lon="-13.951087744837">
        <ele>149</ele>
        <time>2016-04-13T09:46:07Z</time>
      </trkpt>
      <trkpt lat="28.229905935656" lon="-13.950966542563">
        <ele>150</ele>
        <time>2016-04-13T09:46:12Z</time>
      </trkpt>
      <trkpt lat="28.229880203223" lon="-13.950848357773">
        <ele>151.4</ele>
        <time>2016-04-13T09:46:17Z</time>
      </trkpt>
      <trkpt lat="28.229873832979" lon="-13.950738135788">
        <ele>152.6</ele>
        <time>2016-04-13T09:46:22Z</time>
      </trkpt>
      <trkpt lat="28.2298620145" lon="-13.950642917404">
        <ele>153.8</ele>
        <time>2016-04-13T09:46:26Z</time>
      </trkpt>
      <trkpt lat="28.229861260129" lon="-13.950504364597">
        <ele>154.8</ele>
        <time>2016-04-13T09:46:32Z</time>
      </trkpt>
      <trkpt lat="28.229859583749" lon="-13.950407469833">
        <ele>155.8</ele>
        <time>2016-04-13T09:46:36Z</time>
      </trkpt>
      <trkpt lat="28.229846507985" lon="-13.950249135742">
        <ele>157</ele>
        <time>2016-04-13T09:46:42Z</time>
      </trkpt>
      <trkpt lat="28.229823038665" lon="-13.950144445811">
        <ele>158.2</ele>
        <time>2016-04-13T09:46:46Z</time>
      </trkpt>
      <trkpt lat="28.229811052548" lon="-13.950001785873">
        <ele>159.2</ele>
        <time>2016-04-13T09:46:52Z</time>
      </trkpt>
      <trkpt lat="28.22981339948" lon="-13.949935485044">
        <ele>160.2</ele>
        <time>2016-04-13T09:46:55Z</time>
      </trkpt>
      <trkpt lat="28.229809795263" lon="-13.949772289451">
        <ele>161.4</ele>
        <time>2016-04-13T09:47:01Z</time>
      </trkpt>
      <trkpt lat="28.229821697561" lon="-13.949711353038">
        <ele>162.6</ele>
        <time>2016-04-13T09:47:04Z</time>
      </trkpt>
      <trkpt lat="28.229900738878" lon="-13.949649746073">
        <ele>163.6</ele>
        <time>2016-04-13T09:47:09Z</time>
      </trkpt>
      <trkpt lat="28.23000115404" lon="-13.949633988101">
        <ele>165</ele>
        <time>2016-04-13T09:47:14Z</time>
      </trkpt>
      <trkpt lat="28.230063263919" lon="-13.949631389712">
        <ele>166</ele>
        <time>2016-04-13T09:47:17Z</time>
      </trkpt>
      <trkpt lat="28.230189243876" lon="-13.949628875142">
        <ele>167.2</ele>
        <time>2016-04-13T09:47:23Z</time>
      </trkpt>
      <trkpt lat="28.230332322909" lon="-13.949631389712">
        <ele>168.4</ele>
        <time>2016-04-13T09:47:31Z</time>
      </trkpt>
      <trkpt lat="28.230390493295" lon="-13.949644214019">
        <ele>169</ele>
        <time>2016-04-13T09:47:36Z</time>
      </trkpt>
      <trkpt lat="28.2304319837" lon="-13.949642286182">
        <ele>169.4</ele>
        <time>2016-04-13T09:47:39Z</time>
      </trkpt>
      <trkpt lat="28.230561400236" lon="-13.949625103287">
        <ele>170.4</ele>
        <time>2016-04-13T09:47:49Z</time>
      </trkpt>
      <trkpt lat="28.230651924756" lon="-13.949594928447">
        <ele>171.4</ele>
        <time>2016-04-13T09:47:56Z</time>
      </trkpt>
      <trkpt lat="28.230766505329" lon="-13.949548827997">
        <ele>172.6</ele>
        <time>2016-04-13T09:48:04Z</time>
      </trkpt>
      <trkpt lat="28.230825513905" lon="-13.949497614588">
        <ele>173.2</ele>
        <time>2016-04-13T09:48:09Z</time>
      </trkpt>
      <trkpt lat="28.230875721486" lon="-13.949441036763">
        <ele>173.8</ele>
        <time>2016-04-13T09:48:12Z</time>
      </trkpt>
      <trkpt lat="28.230934981519" lon="-13.9493591456">
        <ele>175.2</ele>
        <time>2016-04-13T09:48:16Z</time>
      </trkpt>
      <trkpt lat="28.230973622078" lon="-13.949241044629">
        <ele>176.4</ele>
        <time>2016-04-13T09:48:21Z</time>
      </trkpt>
      <trkpt lat="28.230998516321" lon="-13.949120093812">
        <ele>177.8</ele>
        <time>2016-04-13T09:48:26Z</time>
      </trkpt>
      <trkpt lat="28.231001449986" lon="-13.949041723047">
        <ele>179</ele>
        <time>2016-04-13T09:48:29Z</time>
      </trkpt>
      <trkpt lat="28.230994660647" lon="-13.948885903526">
        <ele>180</ele>
        <time>2016-04-13T09:48:35Z</time>
      </trkpt>
      <trkpt lat="28.230946883817" lon="-13.948786829468">
        <ele>181.4</ele>
        <time>2016-04-13T09:48:39Z</time>
      </trkpt>
      <trkpt lat="28.230904471403" lon="-13.948687839229">
        <ele>182.6</ele>
        <time>2016-04-13T09:48:44Z</time>
      </trkpt>
      <trkpt lat="28.230855018193" lon="-13.94861818564">
        <ele>183.6</ele>
        <time>2016-04-13T09:48:48Z</time>
      </trkpt>
      <trkpt lat="28.230809336838" lon="-13.948537384124">
        <ele>184.6</ele>
        <time>2016-04-13T09:48:52Z</time>
      </trkpt>
      <trkpt lat="28.230774719591" lon="-13.948482482679">
        <ele>185.8</ele>
        <time>2016-04-13T09:48:55Z</time>
      </trkpt>
      <trkpt lat="28.230748232787" lon="-13.948454570952">
        <ele>186.8</ele>
        <time>2016-04-13T09:48:57Z</time>
      </trkpt>
      <trkpt lat="28.230663156502" lon="-13.948387348114">
        <ele>187.8</ele>
        <time>2016-04-13T09:49:02Z</time>
      </trkpt>
      <trkpt lat="28.23053843383" lon="-13.948266229659">
        <ele>189.2</ele>
        <time>2016-04-13T09:49:09Z</time>
      </trkpt>
      <trkpt lat="28.230360821369" lon="-13.948232031507">
        <ele>190</ele>
        <time>2016-04-13T09:49:17Z</time>
      </trkpt>
      <trkpt lat="28.230257723999" lon="-13.948288693151">
        <ele>190.2</ele>
        <time>2016-04-13T09:49:22Z</time>
      </trkpt>
      <trkpt lat="28.230187651315" lon="-13.948311240462">
        <ele>190.6</ele>
        <time>2016-04-13T09:49:26Z</time>
      </trkpt>
      <trkpt lat="28.230177425397" lon="-13.948240497226">
        <ele>190.8</ele>
        <time>2016-04-13T09:49:30Z</time>
      </trkpt>
      <trkpt lat="28.230291503056" lon="-13.948134969105">
        <ele>189.6</ele>
        <time>2016-04-13T10:03:14Z</time>
      </trkpt>
      <trkpt lat="28.230451848803" lon="-13.948241670692">
        <ele>190</ele>
        <time>2016-04-13T10:03:27Z</time>
      </trkpt>
      <trkpt lat="28.230601046623" lon="-13.948359017292">
        <ele>189</ele>
        <time>2016-04-13T10:03:42Z</time>
      </trkpt>
      <trkpt lat="28.230625521771" lon="-13.948378547119">
        <ele>188.6</ele>
        <time>2016-04-13T10:03:45Z</time>
      </trkpt>
      <trkpt lat="28.230634909499" lon="-13.948385923191">
        <ele>188.4</ele>
        <time>2016-04-13T10:03:46Z</time>
      </trkpt>
      <trkpt lat="28.230659384647" lon="-13.948405369199">
        <ele>188.2</ele>
        <time>2016-04-13T10:03:48Z</time>
      </trkpt>
      <trkpt lat="28.230961384504" lon="-13.949192094333">
        <ele>177.8</ele>
        <time>2016-04-13T10:04:58Z</time>
      </trkpt>
      <trkpt lat="28.230909081448" lon="-13.949322935792">
        <ele>176.8</ele>
        <time>2016-04-13T10:05:06Z</time>
      </trkpt>
      <trkpt lat="28.230838170574" lon="-13.949452771423">
        <ele>175.8</ele>
        <time>2016-04-13T10:05:11Z</time>
      </trkpt>
      <trkpt lat="28.230798943282" lon="-13.949500380615">
        <ele>174.6</ele>
        <time>2016-04-13T10:05:13Z</time>
      </trkpt>
      <trkpt lat="28.230744712389" lon="-13.949550588196">
        <ele>173.4</ele>
        <time>2016-04-13T10:05:15Z</time>
      </trkpt>
      <trkpt lat="28.230642788485" lon="-13.949613452446">
        <ele>172.4</ele>
        <time>2016-04-13T10:05:18Z</time>
      </trkpt>
      <trkpt lat="28.230532398862" lon="-13.949646225675">
        <ele>171.2</ele>
        <time>2016-04-13T10:05:21Z</time>
      </trkpt>
      <trkpt lat="28.230462493816" lon="-13.949673550669">
        <ele>170.2</ele>
        <time>2016-04-13T10:05:23Z</time>
      </trkpt>
      <trkpt lat="28.23035738479" lon="-13.949705150432">
        <ele>169</ele>
        <time>2016-04-13T10:05:26Z</time>
      </trkpt>
      <trkpt lat="28.2302643457" lon="-13.949703306414">
        <ele>167.6</ele>
        <time>2016-04-13T10:05:29Z</time>
      </trkpt>
      <trkpt lat="28.230188824781" lon="-13.949708838468">
        <ele>166.6</ele>
        <time>2016-04-13T10:05:31Z</time>
      </trkpt>
      <trkpt lat="28.23007407657" lon="-13.949716633635">
        <ele>165.6</ele>
        <time>2016-04-13T10:05:34Z</time>
      </trkpt>
      <trkpt lat="28.229955807961" lon="-13.949746976113">
        <ele>164.4</ele>
        <time>2016-04-13T10:05:37Z</time>
      </trkpt>
      <trkpt lat="28.229881711965" lon="-13.949774971659">
        <ele>163.4</ele>
        <time>2016-04-13T10:05:39Z</time>
      </trkpt>
      <trkpt lat="28.229849190193" lon="-13.949802464291">
        <ele>163.2</ele>
        <time>2016-04-13T10:05:40Z</time>
      </trkpt>
      <trkpt lat="28.22977400455" lon="-13.949932802836">
        <ele>161.8</ele>
        <time>2016-04-13T10:05:44Z</time>
      </trkpt>
      <trkpt lat="28.229757156931" lon="-13.950082419751">
        <ele>160.8</ele>
        <time>2016-04-13T10:05:48Z</time>
      </trkpt>
      <trkpt lat="28.229758833311" lon="-13.950153162987">
        <ele>159.6</ele>
        <time>2016-04-13T10:05:50Z</time>
      </trkpt>
      <trkpt lat="28.229770567971" lon="-13.950217284522">
        <ele>158.2</ele>
        <time>2016-04-13T10:05:52Z</time>
      </trkpt>
      <trkpt lat="28.229781212984" lon="-13.95031887315">
        <ele>157.2</ele>
        <time>2016-04-13T10:05:55Z</time>
      </trkpt>
      <trkpt lat="28.229799569345" lon="-13.950491707928">
        <ele>155.8</ele>
        <time>2016-04-13T10:06:00Z</time>
      </trkpt>
      <trkpt lat="28.229811890738" lon="-13.950595392031">
        <ele>154.8</ele>
        <time>2016-04-13T10:06:03Z</time>
      </trkpt>
      <trkpt lat="28.229815578774" lon="-13.95071282245">
        <ele>153.6</ele>
        <time>2016-04-13T10:06:06Z</time>
      </trkpt>
      <trkpt lat="28.229817758068" lon="-13.950751546828">
        <ele>153</ele>
        <time>2016-04-13T10:06:07Z</time>
      </trkpt>
      <trkpt lat="28.229828319262" lon="-13.950830839602">
        <ele>152.2</ele>
        <time>2016-04-13T10:06:09Z</time>
      </trkpt>
      <trkpt lat="28.22984860346" lon="-13.950921615579">
        <ele>151</ele>
        <time>2016-04-13T10:06:12Z</time>
      </trkpt>
      <trkpt lat="28.229862685052" lon="-13.951033262487">
        <ele>149.8</ele>
        <time>2016-04-13T10:06:16Z</time>
      </trkpt>
      <trkpt lat="28.229875760816" lon="-13.951132923278">
        <ele>148.6</ele>
        <time>2016-04-13T10:06:19Z</time>
      </trkpt>
      <trkpt lat="28.229951030278" lon="-13.951328473005">
        <ele>147.6</ele>
        <time>2016-04-13T10:06:24Z</time>
      </trkpt>
      <trkpt lat="28.229970308648" lon="-13.951360491863">
        <ele>147.4</ele>
        <time>2016-04-13T10:06:25Z</time>
      </trkpt>
      <trkpt lat="28.230050104336" lon="-13.951413381652">
        <ele>146</ele>
        <time>2016-04-13T10:06:28Z</time>
      </trkpt>
      <trkpt lat="28.230154626629" lon="-13.951443137397">
        <ele>144.8</ele>
        <time>2016-04-13T10:06:31Z</time>
      </trkpt>
      <trkpt lat="28.230262417863" lon="-13.951428971986">
        <ele>143.4</ele>
        <time>2016-04-13T10:06:34Z</time>
      </trkpt>
      <trkpt lat="28.230343303198" lon="-13.951376585111">
        <ele>142.2</ele>
        <time>2016-04-13T10:06:37Z</time>
      </trkpt>
      <trkpt lat="28.230389068372" lon="-13.951336603448">
        <ele>140.6</ele>
        <time>2016-04-13T10:06:39Z</time>
      </trkpt>
      <trkpt lat="28.230415806633" lon="-13.951316989802">
        <ele>139.4</ele>
        <time>2016-04-13T10:06:40Z</time>
      </trkpt>
      <trkpt lat="28.230490321724" lon="-13.951259825244">
        <ele>137.2</ele>
        <time>2016-04-13T10:06:43Z</time>
      </trkpt>
      <trkpt lat="28.230513455768" lon="-13.951243145263">
        <ele>138.4</ele>
        <time>2016-04-13T10:06:44Z</time>
      </trkpt>
      <trkpt lat="28.230603561193" lon="-13.951210958767">
        <ele>137</ele>
        <time>2016-04-13T10:06:47Z</time>
      </trkpt>
      <trkpt lat="28.230691152048" lon="-13.95119981084">
        <ele>135.8</ele>
        <time>2016-04-13T10:06:50Z</time>
      </trkpt>
      <trkpt lat="28.230783101491" lon="-13.951202241591">
        <ele>135</ele>
        <time>2016-04-13T10:06:53Z</time>
      </trkpt>
      <trkpt lat="28.230809588295" lon="-13.951205510532">
        <ele>134.6</ele>
        <time>2016-04-13T10:06:54Z</time>
      </trkpt>
      <trkpt lat="28.230901034824" lon="-13.951233673716">
        <ele>133.6</ele>
        <time>2016-04-13T10:06:57Z</time>
      </trkpt>
      <trkpt lat="28.231001282348" lon="-13.951273320103">
        <ele>132.2</ele>
        <time>2016-04-13T10:07:00Z</time>
      </trkpt>
      <trkpt lat="28.23109247742" lon="-13.951324952607">
        <ele>131</ele>
        <time>2016-04-13T10:07:03Z</time>
      </trkpt>
      <trkpt lat="28.231142517363" lon="-13.951366526831">
        <ele>130</ele>
        <time>2016-04-13T10:07:05Z</time>
      </trkpt>
      <trkpt lat="28.231178224257" lon="-13.951403826286">
        <ele>129</ele>
        <time>2016-04-13T10:07:07Z</time>
      </trkpt>
      <trkpt lat="28.231218038282" lon="-13.95147557535">
        <ele>128</ele>
        <time>2016-04-13T10:07:10Z</time>
      </trkpt>
      <trkpt lat="28.231314849227" lon="-13.951546570043">
        <ele>126.2</ele>
        <time>2016-04-13T10:07:14Z</time>
      </trkpt>
      <trkpt lat="28.231397997675" lon="-13.951568782078">
        <ele>125</ele>
        <time>2016-04-13T10:07:17Z</time>
      </trkpt>
      <trkpt lat="28.231543842735" lon="-13.951655702381">
        <ele>124</ele>
        <time>2016-04-13T10:07:23Z</time>
      </trkpt>
      <trkpt lat="28.23160880246" lon="-13.951728038178">
        <ele>122.6</ele>
        <time>2016-04-13T10:07:26Z</time>
      </trkpt>
      <trkpt lat="28.231719024445" lon="-13.951792075894">
        <ele>121.4</ele>
        <time>2016-04-13T10:07:30Z</time>
      </trkpt>
      <trkpt lat="28.231775518451" lon="-13.9518150423">
        <ele>120</ele>
        <time>2016-04-13T10:07:32Z</time>
      </trkpt>
      <trkpt lat="28.231852548112" lon="-13.951886539907">
        <ele>119</ele>
        <time>2016-04-13T10:07:36Z</time>
      </trkpt>
      <trkpt lat="28.231884483151" lon="-13.951967341423">
        <ele>117.6</ele>
        <time>2016-04-13T10:07:39Z</time>
      </trkpt>
      <trkpt lat="28.231926392651" lon="-13.95211511432">
        <ele>116.4</ele>
        <time>2016-04-13T10:07:44Z</time>
      </trkpt>
      <trkpt lat="28.231975678223" lon="-13.95229197241">
        <ele>115.4</ele>
        <time>2016-04-13T10:07:50Z</time>
      </trkpt>
      <trkpt lat="28.232122110016" lon="-13.952398673997">
        <ele>114.2</ele>
        <time>2016-04-13T10:07:56Z</time>
      </trkpt>
      <trkpt lat="28.232222860454" lon="-13.952360452533">
        <ele>112.6</ele>
        <time>2016-04-13T10:07:59Z</time>
      </trkpt>
      <trkpt lat="28.232320090494" lon="-13.952315777006">
        <ele>111.6</ele>
        <time>2016-04-13T10:08:02Z</time>
      </trkpt>
      <trkpt lat="28.232429558108" lon="-13.952278812827">
        <ele>110.4</ele>
        <time>2016-04-13T10:08:05Z</time>
      </trkpt>
      <trkpt lat="28.232523686845" lon="-13.952273029316">
        <ele>109.2</ele>
        <time>2016-04-13T10:08:08Z</time>
      </trkpt>
      <trkpt lat="28.23264312892" lon="-13.952323907449">
        <ele>108</ele>
        <time>2016-04-13T10:08:12Z</time>
      </trkpt>
      <trkpt lat="28.232704149152" lon="-13.952388950993">
        <ele>106.4</ele>
        <time>2016-04-13T10:08:15Z</time>
      </trkpt>
      <trkpt lat="28.232771623447" lon="-13.952502693376">
        <ele>105.4</ele>
        <time>2016-04-13T10:08:19Z</time>
      </trkpt>
      <trkpt lat="28.232823507408" lon="-13.952592128249">
        <ele>104.2</ele>
        <time>2016-04-13T10:08:22Z</time>
      </trkpt>
      <trkpt lat="28.232889305323" lon="-13.952720706595">
        <ele>103</ele>
        <time>2016-04-13T10:08:26Z</time>
      </trkpt>
      <trkpt lat="28.232931633918" lon="-13.952883147817">
        <ele>101.6</ele>
        <time>2016-04-13T10:08:31Z</time>
      </trkpt>
      <trkpt lat="28.232959294188" lon="-13.953051204912">
        <ele>100.4</ele>
        <time>2016-04-13T10:08:36Z</time>
      </trkpt>
      <trkpt lat="28.232991648322" lon="-13.953179867077">
        <ele>99.4</ele>
        <time>2016-04-13T10:08:40Z</time>
      </trkpt>
      <trkpt lat="28.233035737116" lon="-13.953306601405">
        <ele>98</ele>
        <time>2016-04-13T10:08:44Z</time>
      </trkpt>
      <trkpt lat="28.233157190847" lon="-13.953403915264">
        <ele>96.8</ele>
        <time>2016-04-13T10:08:49Z</time>
      </trkpt>
      <trkpt lat="28.23324327296" lon="-13.953443561651">
        <ele>95.6</ele>
        <time>2016-04-13T10:08:52Z</time>
      </trkpt>
      <trkpt lat="28.233330528539" lon="-13.953472395387">
        <ele>94.6</ele>
        <time>2016-04-13T10:08:55Z</time>
      </trkpt>
      <trkpt lat="28.233428680588" lon="-13.953540707872">
        <ele>93.4</ele>
        <time>2016-04-13T10:08:59Z</time>
      </trkpt>
      <trkpt lat="28.233494478503" lon="-13.953647074183">
        <ele>92.2</ele>
        <time>2016-04-13T10:09:03Z</time>
      </trkpt>
      <trkpt lat="28.233571424345" lon="-13.953799792401">
        <ele>91</ele>
        <time>2016-04-13T10:09:08Z</time>
      </trkpt>
      <trkpt lat="28.233628085989" lon="-13.953967178944">
        <ele>90</ele>
        <time>2016-04-13T10:09:13Z</time>
      </trkpt>
      <trkpt lat="28.233705870021" lon="-13.954154765866">
        <ele>89</ele>
        <time>2016-04-13T10:09:19Z</time>
      </trkpt>
      <trkpt lat="28.233727076228" lon="-13.95417789991">
        <ele>89</ele>
        <time>2016-04-13T10:09:20Z</time>
      </trkpt>
      <trkpt lat="28.233885158862" lon="-13.954327684463">
        <ele>88.4</ele>
        <time>2016-04-13T10:09:27Z</time>
      </trkpt>
      <trkpt lat="28.233928660923" lon="-13.954372779085">
        <ele>87.8</ele>
        <time>2016-04-13T10:09:29Z</time>
      </trkpt>
      <trkpt lat="28.2340613464" lon="-13.954553911944">
        <ele>87.2</ele>
        <time>2016-04-13T10:09:36Z</time>
      </trkpt>
      <trkpt lat="28.23407308106" lon="-13.954590624666">
        <ele>86.8</ele>
        <time>2016-04-13T10:09:37Z</time>
      </trkpt>
      <trkpt lat="28.234130580894" lon="-13.954792376999">
        <ele>86.2</ele>
        <time>2016-04-13T10:09:43Z</time>
      </trkpt>
      <trkpt lat="28.234144830124" lon="-13.954893211256">
        <ele>85.8</ele>
        <time>2016-04-13T10:09:46Z</time>
      </trkpt>
      <trkpt lat="28.234246334933" lon="-13.955302247976">
        <ele>85.4</ele>
        <time>2016-04-13T10:09:59Z</time>
      </trkpt>
      <trkpt lat="28.234297548342" lon="-13.955520764109">
        <ele>85.6</ele>
        <time>2016-04-13T10:10:06Z</time>
      </trkpt>
      <trkpt lat="28.234362759524" lon="-13.955729221962">
        <ele>85.6</ele>
        <time>2016-04-13T10:10:13Z</time>
      </trkpt>
      <trkpt lat="28.23442009172" lon="-13.955933153589">
        <ele>85.6</ele>
        <time>2016-04-13T10:10:20Z</time>
      </trkpt>
      <trkpt lat="28.234480944314" lon="-13.956129792963">
        <ele>86</ele>
        <time>2016-04-13T10:10:27Z</time>
      </trkpt>
      <trkpt lat="28.234525619841" lon="-13.956335149513">
        <ele>86.2</ele>
        <time>2016-04-13T10:10:34Z</time>
      </trkpt>
      <trkpt lat="28.234582616761" lon="-13.956544445556">
        <ele>86.6</ele>
        <time>2016-04-13T10:10:41Z</time>
      </trkpt>
      <trkpt lat="28.234597620362" lon="-13.956639831578">
        <ele>86.8</ele>
        <time>2016-04-13T10:10:44Z</time>
      </trkpt>
      <trkpt lat="28.234660903707" lon="-13.956830855079">
        <ele>88</ele>
        <time>2016-04-13T10:10:51Z</time>
      </trkpt>
      <trkpt lat="28.234712536211" lon="-13.957032691231">
        <ele>88.4</ele>
        <time>2016-04-13T10:10:58Z</time>
      </trkpt>
      <trkpt lat="28.23474782401" lon="-13.957169567658">
        <ele>89</ele>
        <time>2016-04-13T10:11:03Z</time>
      </trkpt>
      <trkpt lat="28.23479308627" lon="-13.957345755196">
        <ele>90.2</ele>
        <time>2016-04-13T10:11:10Z</time>
      </trkpt>
      <trkpt lat="28.234856285796" lon="-13.957551279384">
        <ele>91</ele>
        <time>2016-04-13T10:11:18Z</time>
      </trkpt>
      <trkpt lat="28.23486936156" lon="-13.957640714257">
        <ele>91.4</ele>
        <time>2016-04-13T10:11:21Z</time>
      </trkpt>
      <trkpt lat="28.234932309629" lon="-13.957861577322">
        <ele>92.2</ele>
        <time>2016-04-13T10:11:29Z</time>
      </trkpt>
      <trkpt lat="28.234946139764" lon="-13.957916646405">
        <ele>92.4</ele>
        <time>2016-04-13T10:11:31Z</time>
      </trkpt>
      <trkpt lat="28.23500095739" lon="-13.958130636312">
        <ele>93.2</ele>
        <time>2016-04-13T10:11:39Z</time>
      </trkpt>
      <trkpt lat="28.2350252649" lon="-13.958202972109">
        <ele>93.6</ele>
        <time>2016-04-13T10:11:42Z</time>
      </trkpt>
      <trkpt lat="28.235063402545" lon="-13.958406652279">
        <ele>94</ele>
        <time>2016-04-13T10:11:49Z</time>
      </trkpt>
      <trkpt lat="28.235121237655" lon="-13.958624916955">
        <ele>94.2</ele>
        <time>2016-04-13T10:11:57Z</time>
      </trkpt>
      <trkpt lat="28.23516943358" lon="-13.958822226881">
        <ele>94.6</ele>
        <time>2016-04-13T10:12:04Z</time>
      </trkpt>
      <trkpt lat="28.235175971462" lon="-13.95885164735">
        <ele>94.8</ele>
        <time>2016-04-13T10:12:05Z</time>
      </trkpt>
      <trkpt lat="28.235235818228" lon="-13.959044766326">
        <ele>94.6</ele>
        <time>2016-04-13T10:12:12Z</time>
      </trkpt>
      <trkpt lat="28.235290635854" lon="-13.959247105392">
        <ele>94.8</ele>
        <time>2016-04-13T10:12:19Z</time>
      </trkpt>
      <trkpt lat="28.235354505932" lon="-13.959443074214">
        <ele>94.6</ele>
        <time>2016-04-13T10:12:26Z</time>
      </trkpt>
      <trkpt lat="28.235410161748" lon="-13.959655890655">
        <ele>94.8</ele>
        <time>2016-04-13T10:12:33Z</time>
      </trkpt>
      <trkpt lat="28.235454082904" lon="-13.959866360164">
        <ele>94</ele>
        <time>2016-04-13T10:12:40Z</time>
      </trkpt>
      <trkpt lat="28.235496160042" lon="-13.96008127208">
        <ele>94</ele>
        <time>2016-04-13T10:12:47Z</time>
      </trkpt>
      <trkpt lat="28.235517450068" lon="-13.96013240167">
        <ele>93.8</ele>
        <time>2016-04-13T10:12:49Z</time>
      </trkpt>
      <trkpt lat="28.235577296834" lon="-13.960327616121">
        <ele>94.4</ele>
        <time>2016-04-13T10:12:56Z</time>
      </trkpt>
      <trkpt lat="28.235614847746" lon="-13.960434317708">
        <ele>95</ele>
        <time>2016-04-13T10:13:00Z</time>
      </trkpt>
      <trkpt lat="28.235683746964" lon="-13.960633052557">
        <ele>95.6</ele>
        <time>2016-04-13T10:13:08Z</time>
      </trkpt>
      <trkpt lat="28.235707886836" lon="-13.960711926236">
        <ele>96</ele>
        <time>2016-04-13T10:13:11Z</time>
      </trkpt>
      <trkpt lat="28.235763542652" lon="-13.960899513158">
        <ele>97</ele>
        <time>2016-04-13T10:13:18Z</time>
      </trkpt>
      <trkpt lat="28.235803859591" lon="-13.961021637441">
        <ele>98.2</ele>
        <time>2016-04-13T10:13:23Z</time>
      </trkpt>
      <trkpt lat="28.2358383092" lon="-13.961200339549">
        <ele>99.2</ele>
        <time>2016-04-13T10:13:30Z</time>
      </trkpt>
      <trkpt lat="28.235886253668" lon="-13.96136873192">
        <ele>100.2</ele>
        <time>2016-04-13T10:13:37Z</time>
      </trkpt>
      <trkpt lat="28.235906873142" lon="-13.961448108513">
        <ele>101.4</ele>
        <time>2016-04-13T10:13:40Z</time>
      </trkpt>
      <trkpt lat="28.235972251962" lon="-13.961661595506">
        <ele>101.8</ele>
        <time>2016-04-13T10:13:48Z</time>
      </trkpt>
      <trkpt lat="28.236001085698" lon="-13.961772655681">
        <ele>102.8</ele>
        <time>2016-04-13T10:13:52Z</time>
      </trkpt>
      <trkpt lat="28.23606042955" lon="-13.961978179869">
        <ele>103.4</ele>
        <time>2016-04-13T10:13:59Z</time>
      </trkpt>
      <trkpt lat="28.236076690436" lon="-13.962034506237">
        <ele>104.2</ele>
        <time>2016-04-13T10:14:01Z</time>
      </trkpt>
      <trkpt lat="28.236140728152" lon="-13.962250088705">
        <ele>104</ele>
        <time>2016-04-13T10:14:09Z</time>
      </trkpt>
      <trkpt lat="28.23619956909" lon="-13.962473047245">
        <ele>104.8</ele>
        <time>2016-04-13T10:14:17Z</time>
      </trkpt>
      <trkpt lat="28.236245585721" lon="-13.962616713011">
        <ele>105.4</ele>
        <time>2016-04-13T10:14:22Z</time>
      </trkpt>
      <trkpt lat="28.236312305645" lon="-13.962818716801">
        <ele>105.8</ele>
        <time>2016-04-13T10:14:29Z</time>
      </trkpt>
      <trkpt lat="28.23635295786" lon="-13.962961963472">
        <ele>106.4</ele>
        <time>2016-04-13T10:14:34Z</time>
      </trkpt>
      <trkpt lat="28.236404841821" lon="-13.963162290882">
        <ele>107</ele>
        <time>2016-04-13T10:14:41Z</time>
      </trkpt>
      <trkpt lat="28.236492516495" lon="-13.963367395975">
        <ele>107.2</ele>
        <time>2016-04-13T10:14:49Z</time>
      </trkpt>
      <trkpt lat="28.236517913652" lon="-13.963417603556">
        <ele>107.4</ele>
        <time>2016-04-13T10:14:51Z</time>
      </trkpt>
      <trkpt lat="28.23660273848" lon="-13.963625642314">
        <ele>107.6</ele>
        <time>2016-04-13T10:14:59Z</time>
      </trkpt>
      <trkpt lat="28.236709104791" lon="-13.963824880077">
        <ele>108</ele>
        <time>2016-04-13T10:15:07Z</time>
      </trkpt>
      <trkpt lat="28.236832989273" lon="-13.964001905805">
        <ele>108.2</ele>
        <time>2016-04-13T10:15:15Z</time>
      </trkpt>
      <trkpt lat="28.236935332272" lon="-13.964126963753">
        <ele>108.6</ele>
        <time>2016-04-13T10:15:21Z</time>
      </trkpt>
      <trkpt lat="28.237071370509" lon="-13.964300636721">
        <ele>108.8</ele>
        <time>2016-04-13T10:15:29Z</time>
      </trkpt>
      <trkpt lat="28.237189555299" lon="-13.964469615825">
        <ele>109</ele>
        <time>2016-04-13T10:15:36Z</time>
      </trkpt>
      <trkpt lat="28.237319307111" lon="-13.964647395924">
        <ele>109.4</ele>
        <time>2016-04-13T10:15:44Z</time>
      </trkpt>
      <trkpt lat="28.237443945964" lon="-13.964799862685">
        <ele>109.4</ele>
        <time>2016-04-13T10:15:51Z</time>
      </trkpt>
      <trkpt lat="28.23746020685" lon="-13.964820733616">
        <ele>109.6</ele>
        <time>2016-04-13T10:15:52Z</time>
      </trkpt>
      <trkpt lat="28.237575709432" lon="-13.964986695236">
        <ele>110</ele>
        <time>2016-04-13T10:15:59Z</time>
      </trkpt>
      <trkpt lat="28.237707137624" lon="-13.965160368204">
        <ele>110.4</ele>
        <time>2016-04-13T10:16:08Z</time>
      </trkpt>
      <trkpt lat="28.237721219216" lon="-13.965182244963">
        <ele>110.6</ele>
        <time>2016-04-13T10:16:09Z</time>
      </trkpt>
      <trkpt lat="28.237832195572" lon="-13.965349631506">
        <ele>110.8</ele>
        <time>2016-04-13T10:16:16Z</time>
      </trkpt>
      <trkpt lat="28.237963875221" lon="-13.965520789904">
        <ele>111.2</ele>
        <time>2016-04-13T10:16:24Z</time>
      </trkpt>
      <trkpt lat="28.23808884935" lon="-13.96566864662">
        <ele>111.6</ele>
        <time>2016-04-13T10:16:31Z</time>
      </trkpt>
      <trkpt lat="28.23810477496" lon="-13.96569211594">
        <ele>111.8</ele>
        <time>2016-04-13T10:16:32Z</time>
      </trkpt>
      <trkpt lat="28.238231006374" lon="-13.965868638754">
        <ele>112</ele>
        <time>2016-04-13T10:16:40Z</time>
      </trkpt>
      <trkpt lat="28.238380623289" lon="-13.966020518782">
        <ele>112.6</ele>
        <time>2016-04-13T10:16:48Z</time>
      </trkpt>
      <trkpt lat="28.238444912462" lon="-13.966104589239">
        <ele>113.2</ele>
        <time>2016-04-13T10:16:52Z</time>
      </trkpt>
      <trkpt lat="28.238588997323" lon="-13.966271053773">
        <ele>113.6</ele>
        <time>2016-04-13T10:17:00Z</time>
      </trkpt>
      <trkpt lat="28.23865881855" lon="-13.966350430366">
        <ele>114.6</ele>
        <time>2016-04-13T10:17:04Z</time>
      </trkpt>
      <trkpt lat="28.238812626415" lon="-13.966502058937">
        <ele>115</ele>
        <time>2016-04-13T10:17:12Z</time>
      </trkpt>
      <trkpt lat="28.238971128144" lon="-13.966641952848">
        <ele>115.8</ele>
        <time>2016-04-13T10:17:20Z</time>
      </trkpt>
      <trkpt lat="28.239142537999" lon="-13.966767094615">
        <ele>116.6</ele>
        <time>2016-04-13T10:17:28Z</time>
      </trkpt>
      <trkpt lat="28.239210766665" lon="-13.966806657183">
        <ele>116.8</ele>
        <time>2016-04-13T10:17:31Z</time>
      </trkpt>
      <trkpt lat="28.239377650294" lon="-13.966895672961">
        <ele>117.4</ele>
        <time>2016-04-13T10:17:38Z</time>
      </trkpt>
      <trkpt lat="28.239551993814" lon="-13.966990975164">
        <ele>117.4</ele>
        <time>2016-04-13T10:17:46Z</time>
      </trkpt>
      <trkpt lat="28.239626676543" lon="-13.967023245479">
        <ele>118</ele>
        <time>2016-04-13T10:17:49Z</time>
      </trkpt>
      <trkpt lat="28.23979121324" lon="-13.967103711719">
        <ele>118.2</ele>
        <time>2016-04-13T10:17:56Z</time>
      </trkpt>
      <trkpt lat="28.239967065502" lon="-13.967187865995">
        <ele>118.6</ele>
        <time>2016-04-13T10:18:03Z</time>
      </trkpt>
      <trkpt lat="28.240015596703" lon="-13.967215610084">
        <ele>119.2</ele>
        <time>2016-04-13T10:18:05Z</time>
      </trkpt>
      <trkpt lat="28.240191951879" lon="-13.967329436286">
        <ele>119.2</ele>
        <time>2016-04-13T10:18:13Z</time>
      </trkpt>
      <trkpt lat="28.240357997318" lon="-13.967415266942">
        <ele>119.6</ele>
        <time>2016-04-13T10:18:20Z</time>
      </trkpt>
      <trkpt lat="28.240529574811" lon="-13.96753361937">
        <ele>120.2</ele>
        <time>2016-04-13T10:18:28Z</time>
      </trkpt>
      <trkpt lat="28.240680784287" lon="-13.967648283762">
        <ele>120.4</ele>
        <time>2016-04-13T10:18:36Z</time>
      </trkpt>
      <trkpt lat="28.24082889246" lon="-13.967774347538">
        <ele>121</ele>
        <time>2016-04-13T10:18:44Z</time>
      </trkpt>
      <trkpt lat="28.24086158187" lon="-13.967812233726">
        <ele>121.4</ele>
        <time>2016-04-13T10:18:46Z</time>
      </trkpt>
      <trkpt lat="28.240989992578" lon="-13.967986744884">
        <ele>121.8</ele>
        <time>2016-04-13T10:18:54Z</time>
      </trkpt>
      <trkpt lat="28.241057131597" lon="-13.968094200842">
        <ele>122.4</ele>
        <time>2016-04-13T10:18:59Z</time>
      </trkpt>
      <trkpt lat="28.241164587555" lon="-13.968293270967">
        <ele>123</ele>
        <time>2016-04-13T10:19:07Z</time>
      </trkpt>
      <trkpt lat="28.241203144295" lon="-13.968375581225">
        <ele>123.6</ele>
        <time>2016-04-13T10:19:10Z</time>
      </trkpt>
      <trkpt lat="28.24130498438" lon="-13.968568364925">
        <ele>124</ele>
        <time>2016-04-13T10:19:18Z</time>
      </trkpt>
      <trkpt lat="28.24132426275" lon="-13.96862158999">
        <ele>124.8</ele>
        <time>2016-04-13T10:19:20Z</time>
      </trkpt>
      <trkpt lat="28.241396430909" lon="-13.968832562413">
        <ele>125.6</ele>
        <time>2016-04-13T10:19:29Z</time>
      </trkpt>
      <trkpt lat="28.241412524157" lon="-13.968874388094">
        <ele>125.8</ele>
        <time>2016-04-13T10:19:31Z</time>
      </trkpt>
      <trkpt lat="28.241448733965" lon="-13.969021490439">
        <ele>127</ele>
        <time>2016-04-13T10:19:37Z</time>
      </trkpt>
      <trkpt lat="28.241506904351" lon="-13.969232379043">
        <ele>128</ele>
        <time>2016-04-13T10:19:46Z</time>
      </trkpt>
      <trkpt lat="28.241511514396" lon="-13.969257692381">
        <ele>128.2</ele>
        <time>2016-04-13T10:19:47Z</time>
      </trkpt>
      <trkpt lat="28.241554848819" lon="-13.969468245709">
        <ele>129.2</ele>
        <time>2016-04-13T10:19:56Z</time>
      </trkpt>
      <trkpt lat="28.241598853794" lon="-13.969666561463">
        <ele>129.8</ele>
        <time>2016-04-13T10:20:04Z</time>
      </trkpt>
      <trkpt lat="28.241609498807" lon="-13.969744680771">
        <ele>130.4</ele>
        <time>2016-04-13T10:20:07Z</time>
      </trkpt>
      <trkpt lat="28.241663897338" lon="-13.969952970986">
        <ele>131.4</ele>
        <time>2016-04-13T10:20:15Z</time>
      </trkpt>
      <trkpt lat="28.241703459906" lon="-13.970134355302">
        <ele>132.4</ele>
        <time>2016-04-13T10:20:22Z</time>
      </trkpt>
      <trkpt lat="28.24174084318" lon="-13.970355386005">
        <ele>133.4</ele>
        <time>2016-04-13T10:20:31Z</time>
      </trkpt>
      <trkpt lat="28.241783423232" lon="-13.970523526919">
        <ele>134.6</ele>
        <time>2016-04-13T10:20:38Z</time>
      </trkpt>
      <trkpt lat="28.241824829818" lon="-13.970731900953">
        <ele>135.6</ele>
        <time>2016-04-13T10:20:46Z</time>
      </trkpt>
      <trkpt lat="28.241832289709" lon="-13.970786550941">
        <ele>136</ele>
        <time>2016-04-13T10:20:48Z</time>
      </trkpt>
      <trkpt lat="28.241847628586" lon="-13.970859808747">
        <ele>137</ele>
        <time>2016-04-13T10:20:51Z</time>
      </trkpt>
      <trkpt lat="28.241879731263" lon="-13.971062483089">
        <ele>137.4</ele>
        <time>2016-04-13T10:20:59Z</time>
      </trkpt>
      <trkpt lat="28.24190596661" lon="-13.971179829689">
        <ele>138</ele>
        <time>2016-04-13T10:21:04Z</time>
      </trkpt>
      <trkpt lat="28.241941673504" lon="-13.971383928954">
        <ele>139.2</ele>
        <time>2016-04-13T10:21:12Z</time>
      </trkpt>
      <trkpt lat="28.242007639057" lon="-13.971590039875">
        <ele>139.8</ele>
        <time>2016-04-13T10:21:20Z</time>
      </trkpt>
      <trkpt lat="28.242029934911" lon="-13.971632703746">
        <ele>140.2</ele>
        <time>2016-04-13T10:21:22Z</time>
      </trkpt>
      <trkpt lat="28.242118447775" lon="-13.971813585148">
        <ele>140.4</ele>
        <time>2016-04-13T10:21:30Z</time>
      </trkpt>
      <trkpt lat="28.242239817687" lon="-13.971966135728">
        <ele>140.6</ele>
        <time>2016-04-13T10:21:38Z</time>
      </trkpt>
      <trkpt lat="28.242375185372" lon="-13.972107286924">
        <ele>141</ele>
        <time>2016-04-13T10:21:46Z</time>
      </trkpt>
      <trkpt lat="28.242533687101" lon="-13.97223837984">
        <ele>141</ele>
        <time>2016-04-13T10:21:54Z</time>
      </trkpt>
      <trkpt lat="28.242705683689" lon="-13.972334855509">
        <ele>140.2</ele>
        <time>2016-04-13T10:22:02Z</time>
      </trkpt>
      <trkpt lat="28.242846499609" lon="-13.972398138854">
        <ele>139.2</ele>
        <time>2016-04-13T10:22:08Z</time>
      </trkpt>
      <trkpt lat="28.242966528417" lon="-13.972443987847">
        <ele>138.2</ele>
        <time>2016-04-13T10:22:13Z</time>
      </trkpt>
      <trkpt lat="28.243058226403" lon="-13.972477850723">
        <ele>137</ele>
        <time>2016-04-13T10:22:17Z</time>
      </trkpt>
      <trkpt lat="28.2431808536" lon="-13.972529818503">
        <ele>136</ele>
        <time>2016-04-13T10:22:22Z</time>
      </trkpt>
      <trkpt lat="28.243327704488" lon="-13.972576673324">
        <ele>134.8</ele>
        <time>2016-04-13T10:22:28Z</time>
      </trkpt>
      <trkpt lat="28.243463742725" lon="-13.97261724172">
        <ele>133.6</ele>
        <time>2016-04-13T10:22:33Z</time>
      </trkpt>
      <trkpt lat="28.243563738792" lon="-13.972649847311">
        <ele>132.4</ele>
        <time>2016-04-13T10:22:37Z</time>
      </trkpt>
      <trkpt lat="28.24373824995" lon="-13.972714220303">
        <ele>131.4</ele>
        <time>2016-04-13T10:22:44Z</time>
      </trkpt>
      <trkpt lat="28.243835731447" lon="-13.972741042383">
        <ele>130.2</ele>
        <time>2016-04-13T10:22:48Z</time>
      </trkpt>
      <trkpt lat="28.244029604794" lon="-13.972806169746">
        <ele>128.8</ele>
        <time>2016-04-13T10:22:56Z</time>
      </trkpt>
      <trkpt lat="28.244207720169" lon="-13.972898789741">
        <ele>128.2</ele>
        <time>2016-04-13T10:23:04Z</time>
      </trkpt>
      <trkpt lat="28.244313164471" lon="-13.972979926533">
        <ele>127.6</ele>
        <time>2016-04-13T10:23:09Z</time>
      </trkpt>
      <trkpt lat="28.2444465205" lon="-13.973118563159">
        <ele>127.8</ele>
        <time>2016-04-13T10:23:16Z</time>
      </trkpt>
      <trkpt lat="28.244563783281" lon="-13.973280836743">
        <ele>127.4</ele>
        <time>2016-04-13T10:23:23Z</time>
      </trkpt>
      <trkpt lat="28.244653637249" lon="-13.973465070905">
        <ele>127.4</ele>
        <time>2016-04-13T10:23:30Z</time>
      </trkpt>
      <trkpt lat="28.244731672738" lon="-13.973679647545">
        <ele>127.4</ele>
        <time>2016-04-13T10:23:38Z</time>
      </trkpt>
      <trkpt lat="28.244773582238" lon="-13.973903444275">
        <ele>128.2</ele>
        <time>2016-04-13T10:23:46Z</time>
      </trkpt>
      <trkpt lat="28.244803086526" lon="-13.974121206037">
        <ele>128.4</ele>
        <time>2016-04-13T10:23:54Z</time>
      </trkpt>
      <trkpt lat="28.244805433458" lon="-13.974145848823">
        <ele>128.6</ele>
        <time>2016-04-13T10:23:55Z</time>
      </trkpt>
      <trkpt lat="28.244787412373" lon="-13.974371070476">
        <ele>129</ele>
        <time>2016-04-13T10:24:03Z</time>
      </trkpt>
      <trkpt lat="28.244726056865" lon="-13.974593358464">
        <ele>128.2</ele>
        <time>2016-04-13T10:24:11Z</time>
      </trkpt>
      <trkpt lat="28.244690014695" lon="-13.974670220487">
        <ele>127.4</ele>
        <time>2016-04-13T10:24:14Z</time>
      </trkpt>
      <trkpt lat="28.244646344996" lon="-13.974762924301">
        <ele>126.2</ele>
        <time>2016-04-13T10:24:18Z</time>
      </trkpt>
      <trkpt lat="28.244566884584" lon="-13.974900890375">
        <ele>125.2</ele>
        <time>2016-04-13T10:24:24Z</time>
      </trkpt>
      <trkpt lat="28.24448172448" lon="-13.975021422097">
        <ele>124.2</ele>
        <time>2016-04-13T10:24:29Z</time>
      </trkpt>
      <trkpt lat="28.244388517752" lon="-13.975136924679">
        <ele>122.8</ele>
        <time>2016-04-13T10:24:34Z</time>
      </trkpt>
      <trkpt lat="28.244289276056" lon="-13.975287882698">
        <ele>121.6</ele>
        <time>2016-04-13T10:24:40Z</time>
      </trkpt>
      <trkpt lat="28.244197913346" lon="-13.975472703593">
        <ele>120.6</ele>
        <time>2016-04-13T10:24:47Z</time>
      </trkpt>
      <trkpt lat="28.244163547556" lon="-13.975701194187">
        <ele>119.6</ele>
        <time>2016-04-13T10:24:55Z</time>
      </trkpt>
      <trkpt lat="28.24416237409" lon="-13.975727429534">
        <ele>119.4</ele>
        <time>2016-04-13T10:24:56Z</time>
      </trkpt>
      <trkpt lat="28.244181065727" lon="-13.975952483549">
        <ele>118.4</ele>
        <time>2016-04-13T10:25:03Z</time>
      </trkpt>
      <trkpt lat="28.244185927229" lon="-13.975983831855">
        <ele>118</ele>
        <time>2016-04-13T10:25:04Z</time>
      </trkpt>
      <trkpt lat="28.244221215028" lon="-13.976134622236">
        <ele>117</ele>
        <time>2016-04-13T10:25:09Z</time>
      </trkpt>
      <trkpt lat="28.244298579965" lon="-13.976321454787">
        <ele>116.2</ele>
        <time>2016-04-13T10:25:16Z</time>
      </trkpt>
      <trkpt lat="28.244309811711" lon="-13.976351126713">
        <ele>115.8</ele>
        <time>2016-04-13T10:25:17Z</time>
      </trkpt>
      <trkpt lat="28.244369742296" lon="-13.976492697004">
        <ele>114.6</ele>
        <time>2016-04-13T10:25:22Z</time>
      </trkpt>
      <trkpt lat="28.244450040898" lon="-13.976679361917">
        <ele>113.6</ele>
        <time>2016-04-13T10:25:29Z</time>
      </trkpt>
      <trkpt lat="28.244459512445" lon="-13.976710458766">
        <ele>113.4</ele>
        <time>2016-04-13T10:25:30Z</time>
      </trkpt>
      <trkpt lat="28.24452028122" lon="-13.976876504205">
        <ele>112.2</ele>
        <time>2016-04-13T10:25:36Z</time>
      </trkpt>
      <trkpt lat="28.244584067479" lon="-13.977011788071">
        <ele>111.2</ele>
        <time>2016-04-13T10:25:41Z</time>
      </trkpt>
      <trkpt lat="28.244672747981" lon="-13.977196106052">
        <ele>110</ele>
        <time>2016-04-13T10:25:48Z</time>
      </trkpt>
      <trkpt lat="28.244744832321" lon="-13.977395427634">
        <ele>108.8</ele>
        <time>2016-04-13T10:25:55Z</time>
      </trkpt>
      <trkpt lat="28.244828902778" lon="-13.977595084492">
        <ele>107.8</ele>
        <time>2016-04-13T10:26:02Z</time>
      </trkpt>
      <trkpt lat="28.244841643266" lon="-13.977620984563">
        <ele>107.6</ele>
        <time>2016-04-13T10:26:03Z</time>
      </trkpt>
      <trkpt lat="28.244904591335" lon="-13.977761129931">
        <ele>106.6</ele>
        <time>2016-04-13T10:26:08Z</time>
      </trkpt>
      <trkpt lat="28.244996456959" lon="-13.97796824668">
        <ele>105.8</ele>
        <time>2016-04-13T10:26:15Z</time>
      </trkpt>
      <trkpt lat="28.245032666767" lon="-13.978079809769">
        <ele>105.6</ele>
        <time>2016-04-13T10:26:19Z</time>
      </trkpt>
      <trkpt lat="28.24510952879" lon="-13.978284998681">
        <ele>104.4</ele>
        <time>2016-04-13T10:26:27Z</time>
      </trkpt>
      <trkpt lat="28.245159233457" lon="-13.978425144049">
        <ele>103.4</ele>
        <time>2016-04-13T10:26:32Z</time>
      </trkpt>
      <trkpt lat="28.245211201237" lon="-13.978623878898">
        <ele>102.4</ele>
        <time>2016-04-13T10:26:39Z</time>
      </trkpt>
      <trkpt lat="28.245218744947" lon="-13.978650952435">
        <ele>102.2</ele>
        <time>2016-04-13T10:26:40Z</time>
      </trkpt>
      <trkpt lat="28.245251685814" lon="-13.978862763048">
        <ele>101.2</ele>
        <time>2016-04-13T10:26:47Z</time>
      </trkpt>
      <trkpt lat="28.245272892021" lon="-13.979076501498">
        <ele>100.4</ele>
        <time>2016-04-13T10:26:54Z</time>
      </trkpt>
      <trkpt lat="28.245276831514" lon="-13.979135593893">
        <ele>100</ele>
        <time>2016-04-13T10:26:56Z</time>
      </trkpt>
      <trkpt lat="28.245286722156" lon="-13.97928671955">
        <ele>99</ele>
        <time>2016-04-13T10:27:01Z</time>
      </trkpt>
      <trkpt lat="28.24531153258" lon="-13.979514958687">
        <ele>98.2</ele>
        <time>2016-04-13T10:27:09Z</time>
      </trkpt>
      <trkpt lat="28.245315052978" lon="-13.979542199862">
        <ele>98</ele>
        <time>2016-04-13T10:27:10Z</time>
      </trkpt>
      <trkpt lat="28.245331816778" lon="-13.979770690456">
        <ele>97</ele>
        <time>2016-04-13T10:27:18Z</time>
      </trkpt>
      <trkpt lat="28.245339276669" lon="-13.979803631323">
        <ele>96.6</ele>
        <time>2016-04-13T10:27:19Z</time>
      </trkpt>
      <trkpt lat="28.245364003274" lon="-13.979962468328">
        <ele>95.4</ele>
        <time>2016-04-13T10:27:24Z</time>
      </trkpt>
      <trkpt lat="28.245391831182" lon="-13.980178386072">
        <ele>94.4</ele>
        <time>2016-04-13T10:27:31Z</time>
      </trkpt>
      <trkpt lat="28.245406415688" lon="-13.980350047384">
        <ele>93.4</ele>
        <time>2016-04-13T10:27:37Z</time>
      </trkpt>
      <trkpt lat="28.24541295357" lon="-13.980535203555">
        <ele>92.4</ele>
        <time>2016-04-13T10:27:43Z</time>
      </trkpt>
      <trkpt lat="28.245433992139" lon="-13.980744583417">
        <ele>91.4</ele>
        <time>2016-04-13T10:27:50Z</time>
      </trkpt>
      <trkpt lat="28.245436255252" lon="-13.980775680266">
        <ele>91.2</ele>
        <time>2016-04-13T10:27:51Z</time>
      </trkpt>
      <trkpt lat="28.245447570817" lon="-13.980991765648">
        <ele>90.2</ele>
        <time>2016-04-13T10:27:58Z</time>
      </trkpt>
      <trkpt lat="28.24545402488" lon="-13.981213047808">
        <ele>89.2</ele>
        <time>2016-04-13T10:28:05Z</time>
      </trkpt>
      <trkpt lat="28.245457629097" lon="-13.981243809381">
        <ele>89</ele>
        <time>2016-04-13T10:28:06Z</time>
      </trkpt>
      <trkpt lat="28.245478164752" lon="-13.981460062401">
        <ele>88.2</ele>
        <time>2016-04-13T10:28:13Z</time>
      </trkpt>
      <trkpt lat="28.245476404553" lon="-13.981587886376">
        <ele>87.8</ele>
        <time>2016-04-13T10:28:17Z</time>
      </trkpt>
      <trkpt lat="28.245455533622" lon="-13.981773880737">
        <ele>86.8</ele>
        <time>2016-04-13T10:28:23Z</time>
      </trkpt>
      <trkpt lat="28.24541714452" lon="-13.981979488744">
        <ele>85.8</ele>
        <time>2016-04-13T10:28:30Z</time>
      </trkpt>
      <trkpt lat="28.245413121208" lon="-13.98201167524">
        <ele>85.6</ele>
        <time>2016-04-13T10:28:31Z</time>
      </trkpt>
      <trkpt lat="28.245366350206" lon="-13.98222038455">
        <ele>85</ele>
        <time>2016-04-13T10:28:38Z</time>
      </trkpt>
      <trkpt lat="28.245345479275" lon="-13.982283081162">
        <ele>84.6</ele>
        <time>2016-04-13T10:28:40Z</time>
      </trkpt>
      <trkpt lat="28.245258056058" lon="-13.982462034727">
        <ele>84.4</ele>
        <time>2016-04-13T10:28:46Z</time>
      </trkpt>
      <trkpt lat="28.245138278707" lon="-13.982655991893">
        <ele>84</ele>
        <time>2016-04-13T10:28:53Z</time>
      </trkpt>
      <trkpt lat="28.245015902967" lon="-13.982816756735">
        <ele>84</ele>
        <time>2016-04-13T10:29:00Z</time>
      </trkpt>
      <trkpt lat="28.244894365417" lon="-13.982988250409">
        <ele>83.4</ele>
        <time>2016-04-13T10:29:07Z</time>
      </trkpt>
      <trkpt lat="28.244761763759" lon="-13.983158989712">
        <ele>82.6</ele>
        <time>2016-04-13T10:29:14Z</time>
      </trkpt>
      <trkpt lat="28.244672580343" lon="-13.983285053488">
        <ele>82.4</ele>
        <time>2016-04-13T10:29:19Z</time>
      </trkpt>
      <trkpt lat="28.244548192947" lon="-13.98344162738">
        <ele>81.6</ele>
        <time>2016-04-13T10:29:26Z</time>
      </trkpt>
      <trkpt lat="28.244456914056" lon="-13.983550340623">
        <ele>81</ele>
        <time>2016-04-13T10:29:31Z</time>
      </trkpt>
      <trkpt lat="28.244322216923" lon="-13.983707249791">
        <ele>80.2</ele>
        <time>2016-04-13T10:29:38Z</time>
      </trkpt>
      <trkpt lat="28.244264884727" lon="-13.983771287507">
        <ele>79.8</ele>
        <time>2016-04-13T10:29:41Z</time>
      </trkpt>
      <trkpt lat="28.244127673024" lon="-13.983921658793">
        <ele>79.4</ele>
        <time>2016-04-13T10:29:48Z</time>
      </trkpt>
      <trkpt lat="28.243999094678" lon="-13.984073538821">
        <ele>79</ele>
        <time>2016-04-13T10:29:54Z</time>
      </trkpt>
      <trkpt lat="28.243975792996" lon="-13.984099690349">
        <ele>78.8</ele>
        <time>2016-04-13T10:29:55Z</time>
      </trkpt>
      <trkpt lat="28.24384721465" lon="-13.984251738015">
        <ele>78</ele>
        <time>2016-04-13T10:30:02Z</time>
      </trkpt>
      <trkpt lat="28.243771442274" lon="-13.984344106553">
        <ele>77.8</ele>
        <time>2016-04-13T10:30:06Z</time>
      </trkpt>
      <trkpt lat="28.243647390154" lon="-13.984512582743">
        <ele>76.8</ele>
        <time>2016-04-13T10:30:13Z</time>
      </trkpt>
      <trkpt lat="28.243589387406" lon="-13.984578799753">
        <ele>76.6</ele>
        <time>2016-04-13T10:30:16Z</time>
      </trkpt>
      <trkpt lat="28.243440273405" lon="-13.984707964832">
        <ele>75.8</ele>
        <time>2016-04-13T10:30:23Z</time>
      </trkpt>
      <trkpt lat="28.243283448056" lon="-13.984825562889">
        <ele>76</ele>
        <time>2016-04-13T10:30:30Z</time>
      </trkpt>
      <trkpt lat="28.2432143812" lon="-13.984883146542">
        <ele>75.4</ele>
        <time>2016-04-13T10:30:33Z</time>
      </trkpt>
      <trkpt lat="28.243044480087" lon="-13.984962271678">
        <ele>75</ele>
        <time>2016-04-13T10:30:40Z</time>
      </trkpt>
      <trkpt lat="28.242863263409" lon="-13.984976101813">
        <ele>75.2</ele>
        <time>2016-04-13T10:30:47Z</time>
      </trkpt>
      <trkpt lat="28.242675257392" lon="-13.984973419605">
        <ele>74.8</ele>
        <time>2016-04-13T10:30:54Z</time>
      </trkpt>
      <trkpt lat="28.242478031285" lon="-13.98493025282">
        <ele>74.8</ele>
        <time>2016-04-13T10:31:01Z</time>
      </trkpt>
      <trkpt lat="28.24234433998" lon="-13.984904939482">
        <ele>75</ele>
        <time>2016-04-13T10:31:06Z</time>
      </trkpt>
      <trkpt lat="28.242287929793" lon="-13.984894713564">
        <ele>74.4</ele>
        <time>2016-04-13T10:31:08Z</time>
      </trkpt>
      <trkpt lat="28.242090033134" lon="-13.984866382742">
        <ele>75.2</ele>
        <time>2016-04-13T10:31:15Z</time>
      </trkpt>
      <trkpt lat="28.241890041" lon="-13.984835788807">
        <ele>74.8</ele>
        <time>2016-04-13T10:31:22Z</time>
      </trkpt>
      <trkpt lat="28.241803791249" lon="-13.984818438274">
        <ele>75.6</ele>
        <time>2016-04-13T10:31:25Z</time>
      </trkpt>
      <trkpt lat="28.241616707241" lon="-13.984785832683">
        <ele>75</ele>
        <time>2016-04-13T10:31:32Z</time>
      </trkpt>
      <trkpt lat="28.241428785043" lon="-13.984774433299">
        <ele>75.4</ele>
        <time>2016-04-13T10:31:39Z</time>
      </trkpt>
      <trkpt lat="28.241222925579" lon="-13.984744761373">
        <ele>74.6</ele>
        <time>2016-04-13T10:31:47Z</time>
      </trkpt>
      <trkpt lat="28.241196103499" lon="-13.984741995346">
        <ele>74.6</ele>
        <time>2016-04-13T10:31:48Z</time>
      </trkpt>
      <trkpt lat="28.240998290659" lon="-13.984703187149">
        <ele>74.2</ele>
        <time>2016-04-13T10:31:55Z</time>
      </trkpt>
      <trkpt lat="28.240864766992" lon="-13.984687680634">
        <ele>73.4</ele>
        <time>2016-04-13T10:32:00Z</time>
      </trkpt>
      <trkpt lat="28.240725878909" lon="-13.984667144979">
        <ele>72.2</ele>
        <time>2016-04-13T10:32:05Z</time>
      </trkpt>
      <trkpt lat="28.240557821814" lon="-13.98464778279">
        <ele>71</ele>
        <time>2016-04-13T10:32:11Z</time>
      </trkpt>
      <trkpt lat="28.240407199071" lon="-13.984626576583">
        <ele>69.8</ele>
        <time>2016-04-13T10:32:16Z</time>
      </trkpt>
      <trkpt lat="28.240258839441" lon="-13.984601095607">
        <ele>68.8</ele>
        <time>2016-04-13T10:32:21Z</time>
      </trkpt>
      <trkpt lat="28.240122885023" lon="-13.984576955735">
        <ele>67.6</ele>
        <time>2016-04-13T10:32:26Z</time>
      </trkpt>
      <trkpt lat="28.239925910373" lon="-13.984558180279">
        <ele>66.4</ele>
        <time>2016-04-13T10:32:33Z</time>
      </trkpt>
      <trkpt lat="28.239821304261" lon="-13.984557677365">
        <ele>65.2</ele>
        <time>2016-04-13T10:32:37Z</time>
      </trkpt>
      <trkpt lat="28.239696749227" lon="-13.98456731655">
        <ele>64.2</ele>
        <time>2016-04-13T10:32:42Z</time>
      </trkpt>
      <trkpt lat="28.239549060149" lon="-13.984573519156">
        <ele>63</ele>
        <time>2016-04-13T10:32:47Z</time>
      </trkpt>
      <trkpt lat="28.239361389408" lon="-13.98458408035">
        <ele>61.8</ele>
        <time>2016-04-13T10:32:54Z</time>
      </trkpt>
      <trkpt lat="28.239177574341" lon="-13.984636551044">
        <ele>60.8</ele>
        <time>2016-04-13T10:33:01Z</time>
      </trkpt>
      <trkpt lat="28.239127869674" lon="-13.984657254337">
        <ele>60.6</ele>
        <time>2016-04-13T10:33:03Z</time>
      </trkpt>
      <trkpt lat="28.238951849774" lon="-13.984751047798">
        <ele>59.8</ele>
        <time>2016-04-13T10:33:10Z</time>
      </trkpt>
      <trkpt lat="28.238926368798" lon="-13.984765799942">
        <ele>59.6</ele>
        <time>2016-04-13T10:33:11Z</time>
      </trkpt>
      <trkpt lat="28.238748085785" lon="-13.984850457132">
        <ele>58.4</ele>
        <time>2016-04-13T10:33:18Z</time>
      </trkpt>
      <trkpt lat="28.238579777233" lon="-13.984957829271">
        <ele>57.4</ele>
        <time>2016-04-13T10:33:25Z</time>
      </trkpt>
      <trkpt lat="28.238407445369" lon="-13.985055394587">
        <ele>56.8</ele>
        <time>2016-04-13T10:33:32Z</time>
      </trkpt>
      <trkpt lat="28.238299905592" lon="-13.985117336828">
        <ele>56.4</ele>
        <time>2016-04-13T10:33:36Z</time>
      </trkpt>
      <trkpt lat="28.238113240679" lon="-13.98519344448">
        <ele>55.8</ele>
        <time>2016-04-13T10:33:43Z</time>
      </trkpt>
      <trkpt lat="28.238065128573" lon="-13.985223451682">
        <ele>55.2</ele>
        <time>2016-04-13T10:33:45Z</time>
      </trkpt>
      <trkpt lat="28.237941830824" lon="-13.985281035335">
        <ele>54.2</ele>
        <time>2016-04-13T10:33:50Z</time>
      </trkpt>
      <trkpt lat="28.237768409313" lon="-13.985370554027">
        <ele>53.8</ele>
        <time>2016-04-13T10:33:57Z</time>
      </trkpt>
      <trkpt lat="28.237692636937" lon="-13.98540718293">
        <ele>53.2</ele>
        <time>2016-04-13T10:34:00Z</time>
      </trkpt>
      <trkpt lat="28.237516952313" lon="-13.985504580608">
        <ele>52.2</ele>
        <time>2016-04-13T10:34:07Z</time>
      </trkpt>
      <trkpt lat="28.237492393346" lon="-13.98551782401">
        <ele>52</ele>
        <time>2016-04-13T10:34:08Z</time>
      </trkpt>
      <trkpt lat="28.237308829736" lon="-13.985613210032">
        <ele>51</ele>
        <time>2016-04-13T10:34:15Z</time>
      </trkpt>
      <trkpt lat="28.237233476455" lon="-13.985652102048">
        <ele>51</ele>
        <time>2016-04-13T10:34:18Z</time>
      </trkpt>
      <trkpt lat="28.237101210073" lon="-13.985699040688">
        <ele>49.6</ele>
        <time>2016-04-13T10:34:23Z</time>
      </trkpt>
      <trkpt lat="28.236928375295" lon="-13.985777998186">
        <ele>49</ele>
        <time>2016-04-13T10:34:30Z</time>
      </trkpt>
      <trkpt lat="28.236879005904" lon="-13.985803395343">
        <ele>48.6</ele>
        <time>2016-04-13T10:34:32Z</time>
      </trkpt>
      <trkpt lat="28.236696196665" lon="-13.985877239882">
        <ele>47.8</ele>
        <time>2016-04-13T10:34:39Z</time>
      </trkpt>
      <trkpt lat="28.236594608037" lon="-13.985934572078">
        <ele>47.4</ele>
        <time>2016-04-13T10:34:43Z</time>
      </trkpt>
      <trkpt lat="28.236438201783" lon="-13.986023504037">
        <ele>46.4</ele>
        <time>2016-04-13T10:34:49Z</time>
      </trkpt>
      <trkpt lat="28.236250028128" lon="-13.986117297498">
        <ele>45.8</ele>
        <time>2016-04-13T10:34:56Z</time>
      </trkpt>
      <trkpt lat="28.236160425617" lon="-13.986150908917">
        <ele>45.2</ele>
        <time>2016-04-13T10:34:59Z</time>
      </trkpt>
      <trkpt lat="28.235983399889" lon="-13.986256856133">
        <ele>45.2</ele>
        <time>2016-04-13T10:35:06Z</time>
      </trkpt>
      <trkpt lat="28.235875441017" lon="-13.98631242813">
        <ele>44.2</ele>
        <time>2016-04-13T10:35:10Z</time>
      </trkpt>
      <trkpt lat="28.235706629551" lon="-13.986377974588">
        <ele>43</ele>
        <time>2016-04-13T10:35:16Z</time>
      </trkpt>
      <trkpt lat="28.235561957957" lon="-13.986413597663">
        <ele>42</ele>
        <time>2016-04-13T10:35:21Z</time>
      </trkpt>
      <trkpt lat="28.235381579469" lon="-13.986451400032">
        <ele>41.2</ele>
        <time>2016-04-13T10:35:28Z</time>
      </trkpt>
      <trkpt lat="28.235355260303" lon="-13.986459195199">
        <ele>41</ele>
        <time>2016-04-13T10:35:29Z</time>
      </trkpt>
      <trkpt lat="28.235188795769" lon="-13.986489537677">
        <ele>40</ele>
        <time>2016-04-13T10:35:35Z</time>
      </trkpt>
      <trkpt lat="28.235006154168" lon="-13.986518455232">
        <ele>39.4</ele>
        <time>2016-04-13T10:35:42Z</time>
      </trkpt>
      <trkpt lat="28.234925436471" lon="-13.986529351702">
        <ele>38.8</ele>
        <time>2016-04-13T10:35:45Z</time>
      </trkpt>
      <trkpt lat="28.234732401314" lon="-13.986554245945">
        <ele>38.2</ele>
        <time>2016-04-13T10:35:52Z</time>
      </trkpt>
      <trkpt lat="28.234615976723" lon="-13.986561538198">
        <ele>37.6</ele>
        <time>2016-04-13T10:35:56Z</time>
      </trkpt>
      <trkpt lat="28.234423947394" lon="-13.986568159899">
        <ele>36.8</ele>
        <time>2016-04-13T10:36:02Z</time>
      </trkpt>
      <trkpt lat="28.234395281296" lon="-13.986569081908">
        <ele>36.6</ele>
        <time>2016-04-13T10:36:03Z</time>
      </trkpt>
      <trkpt lat="28.234188080728" lon="-13.986586935355">
        <ele>35.8</ele>
        <time>2016-04-13T10:36:10Z</time>
      </trkpt>
      <trkpt lat="28.234130245618" lon="-13.986590791029">
        <ele>35.6</ele>
        <time>2016-04-13T10:36:12Z</time>
      </trkpt>
      <trkpt lat="28.233934612072" lon="-13.98661836748">
        <ele>34.6</ele>
        <time>2016-04-13T10:36:19Z</time>
      </trkpt>
      <trkpt lat="28.233884823586" lon="-13.986628761036">
        <ele>34.4</ele>
        <time>2016-04-13T10:36:21Z</time>
      </trkpt>
      <trkpt lat="28.233681981606" lon="-13.986637478212">
        <ele>33.6</ele>
        <time>2016-04-13T10:36:28Z</time>
      </trkpt>
      <trkpt lat="28.233653818422" lon="-13.986638986954">
        <ele>33.4</ele>
        <time>2016-04-13T10:36:29Z</time>
      </trkpt>
      <trkpt lat="28.233473523753" lon="-13.986651978899">
        <ele>32.6</ele>
        <time>2016-04-13T10:36:35Z</time>
      </trkpt>
      <trkpt lat="28.233418622308" lon="-13.986660947532">
        <ele>32.4</ele>
        <time>2016-04-13T10:36:37Z</time>
      </trkpt>
      <trkpt lat="28.233239668743" lon="-13.986688691621">
        <ele>31.8</ele>
        <time>2016-04-13T10:36:43Z</time>
      </trkpt>
      <trkpt lat="28.233035234202" lon="-13.986703527584">
        <ele>32.6</ele>
        <time>2016-04-13T10:36:50Z</time>
      </trkpt>
      <trkpt lat="28.232829290919" lon="-13.986707131801">
        <ele>32</ele>
        <time>2016-04-13T10:36:57Z</time>
      </trkpt>
      <trkpt lat="28.232649163888" lon="-13.986720291384">
        <ele>31.8</ele>
        <time>2016-04-13T10:37:03Z</time>
      </trkpt>
      <trkpt lat="28.232465600278" lon="-13.98674325779">
        <ele>31.6</ele>
        <time>2016-04-13T10:37:10Z</time>
      </trkpt>
      <trkpt lat="28.232292178767" lon="-13.986797991597">
        <ele>32.4</ele>
        <time>2016-04-13T10:37:17Z</time>
      </trkpt>
      <trkpt lat="28.232139879644" lon="-13.986913494179">
        <ele>33.4</ele>
        <time>2016-04-13T10:37:24Z</time>
      </trkpt>
      <trkpt lat="28.232037788102" lon="-13.987078198514">
        <ele>33.4</ele>
        <time>2016-04-13T10:37:32Z</time>
      </trkpt>
      <trkpt lat="28.232038710111" lon="-13.987302246701">
        <ele>33</ele>
        <time>2016-04-13T10:37:40Z</time>
      </trkpt>
      <trkpt lat="28.232033094238" lon="-13.987515146961">
        <ele>32.8</ele>
        <time>2016-04-13T10:37:47Z</time>
      </trkpt>
      <trkpt lat="28.231994621317" lon="-13.987742547908">
        <ele>32.6</ele>
        <time>2016-04-13T10:37:55Z</time>
      </trkpt>
      <trkpt lat="28.231979366259" lon="-13.987819745207">
        <ele>32.4</ele>
        <time>2016-04-13T10:37:58Z</time>
      </trkpt>
      <trkpt lat="28.231932762895" lon="-13.988035662951">
        <ele>32.4</ele>
        <time>2016-04-13T10:38:06Z</time>
      </trkpt>
      <trkpt lat="28.231900576399" lon="-13.988246635374">
        <ele>32</ele>
        <time>2016-04-13T10:38:13Z</time>
      </trkpt>
      <trkpt lat="28.23187199412" lon="-13.988461798747">
        <ele>31.8</ele>
        <time>2016-04-13T10:38:20Z</time>
      </trkpt>
      <trkpt lat="28.2318485248" lon="-13.9886786385">
        <ele>31.8</ele>
        <time>2016-04-13T10:38:27Z</time>
      </trkpt>
      <trkpt lat="28.231796137925" lon="-13.988881061385">
        <ele>31.6</ele>
        <time>2016-04-13T10:38:34Z</time>
      </trkpt>
      <trkpt lat="28.231785073817" lon="-13.988912074415">
        <ele>31.2</ele>
        <time>2016-04-13T10:38:35Z</time>
      </trkpt>
      <trkpt lat="28.23172950182" lon="-13.989106199219">
        <ele>30.8</ele>
        <time>2016-04-13T10:38:41Z</time>
      </trkpt>
      <trkpt lat="28.231650292865" lon="-13.989180630491">
        <ele>30.2</ele>
        <time>2016-04-13T10:38:46Z</time>
      </trkpt>
      <trkpt lat="28.231497239371" lon="-13.989139475362">
        <ele>29.2</ele>
        <time>2016-04-13T10:38:52Z</time>
      </trkpt>
      <trkpt lat="28.231354998528" lon="-13.989134194765">
        <ele>28.2</ele>
        <time>2016-04-13T10:38:57Z</time>
      </trkpt>
      <trkpt lat="28.231182415207" lon="-13.989133188937">
        <ele>27.2</ele>
        <time>2016-04-13T10:39:03Z</time>
      </trkpt>
      <trkpt lat="28.231003294004" lon="-13.989180462853">
        <ele>26.6</ele>
        <time>2016-04-13T10:39:10Z</time>
      </trkpt>
      <trkpt lat="28.230890054535" lon="-13.989204602725">
        <ele>26</ele>
        <time>2016-04-13T10:39:15Z</time>
      </trkpt>
      <trkpt lat="28.230758207248" lon="-13.989164956338">
        <ele>25</ele>
        <time>2016-04-13T10:39:20Z</time>
      </trkpt>
      <trkpt lat="28.230573805448" lon="-13.989071246696">
        <ele>24</ele>
        <time>2016-04-13T10:39:27Z</time>
      </trkpt>
      <trkpt lat="28.230545726083" lon="-13.989057165104">
        <ele>23.8</ele>
        <time>2016-04-13T10:39:28Z</time>
      </trkpt>
      <trkpt lat="28.230448244586" lon="-13.989014501233">
        <ele>22.8</ele>
        <time>2016-04-13T10:39:32Z</time>
      </trkpt>
      <trkpt lat="28.230352607107" lon="-13.988989690809">
        <ele>21.8</ele>
        <time>2016-04-13T10:39:36Z</time>
      </trkpt>
      <trkpt lat="28.230194943568" lon="-13.988932526251">
        <ele>20.4</ele>
        <time>2016-04-13T10:39:42Z</time>
      </trkpt>
      <trkpt lat="28.230112717129" lon="-13.988912577329">
        <ele>19.4</ele>
        <time>2016-04-13T10:39:45Z</time>
      </trkpt>
      <trkpt lat="28.230022276428" lon="-13.988877373349">
        <ele>18.4</ele>
        <time>2016-04-13T10:39:48Z</time>
      </trkpt>
      <trkpt lat="28.229821949018" lon="-13.988832194908">
        <ele>17.8</ele>
        <time>2016-04-13T10:39:55Z</time>
      </trkpt>
      <trkpt lat="28.229734358163" lon="-13.988804367">
        <ele>17.4</ele>
        <time>2016-04-13T10:39:59Z</time>
      </trkpt>
    </trkseg>
  </trk>
</gpx>